Observation data for Crane on 11/11/2019      Previous  Date       Current Mesonet Observations  Soil Data  Daily Summary Page  Observations in Plain Language
KCR2 110600Z 19015KT 17/14 A2993 RMK A01 T01730136  RH  079%=      5-min Rain = 0
KCR2 110601Z 20016KT 17/14 A2994 RMK A01 T01720136  RH  079%=      5-min Rain = 0
KCR2 110602Z 20016KT 17/14 A2994 RMK A01 T01720136  RH  079%=      5-min Rain = 0
KCR2 110603Z 19013KT 17/14 A2994 RMK A01 T01720136  RH  079%=      5-min Rain = 0
KCR2 110604Z 19012KT 17/14 A2994 RMK A01 T01710136  RH  079%=      5-min Rain = 0
KCR2 110605Z 20013KT 17/14 A2994 RMK A01 T01710136  RH  080%=      5-min Rain = 0
KCR2 110606Z 20012KT 17/14 A2994 RMK A01 T01710136  RH  080%=      5-min Rain = 0
KCR2 110607Z 20013KT 17/14 A2994 RMK A01 T01710136  RH  080%=      5-min Rain = 0
KCR2 110608Z 19015G21KT 17/14 A2993 RMK A01 T01710136  RH  080%=      5-min Rain = 0
KCR2 110609Z 18017KT 17/14 A2993 RMK A01 T01710136  RH  080%=      5-min Rain = 0
KCR2 110610Z 19017KT 17/14 A2993 RMK A01 T01710136  RH  080%=      5-min Rain = 0
KCR2 110611Z 19018KT 17/14 A2993 RMK A01 T01700136  RH  080%=      5-min Rain = 0
KCR2 110612Z 19018KT 17/14 A2993 RMK A01 T01700136  RH  080%=      5-min Rain = 0
KCR2 110613Z 19021KT 17/14 A2993 RMK A01 T01700136  RH  080%=      5-min Rain = 0
KCR2 110614Z 18020KT 17/14 A2993 RMK A01 T01700135  RH  080%=      5-min Rain = 0
KCR2 110615Z 18017KT 17/14 A2993 RMK A01 T01700135  RH  080%=      5-min Rain = 0
KCR2 110616Z 19016KT 17/14 A2993 RMK A01 T01700136  RH  080%=      5-min Rain = 0
KCR2 110617Z 19013KT 17/14 A2993 RMK A01 T01700135  RH  080%=      5-min Rain = 0
KCR2 110618Z 19014KT 17/14 A2992 RMK A01 T01690135  RH  080%=      5-min Rain = 0
KCR2 110619Z 19016KT 17/14 A2992 RMK A01 T01690135  RH  081%=      5-min Rain = 0
KCR2 110620Z 19012KT 17/14 A2992 RMK A01 T01690135  RH  080%=      5-min Rain = 0
KCR2 110621Z 20011KT 17/14 A2992 RMK A01 T01690135  RH  080%=      5-min Rain = 0
KCR2 110622Z 20013KT 17/14 A2992 RMK A01 T01680135  RH  081%=      5-min Rain = 0
KCR2 110623Z 20011KT 17/14 A2992 RMK A01 T01680135  RH  081%=      5-min Rain = 0
KCR2 110624Z 19011KT 17/14 A2992 RMK A01 T01680135  RH  081%=      5-min Rain = 0
KCR2 110625Z 19012KT 17/14 A2992 RMK A01 T01680135  RH  081%=      5-min Rain = 0
KCR2 110626Z 20010KT 17/14 A2992 RMK A01 T01680135  RH  081%=      5-min Rain = 0
KCR2 110627Z 20012KT 17/14 A2992 RMK A01 T01680135  RH  081%=      5-min Rain = 0
KCR2 110628Z 20011KT 17/14 A2992 RMK A01 T01680135  RH  081%=      5-min Rain = 0
KCR2 110629Z 20010KT 17/14 A2992 RMK A01 T01680135  RH  081%=      5-min Rain = 0
KCR2 110630Z 21009KT 17/14 A2992 RMK A01 T01680135  RH  081%=      5-min Rain = 0
KCR2 110631Z 20012KT 17/14 A2992 RMK A01 T01680135  RH  081%=      5-min Rain = 0
KCR2 110632Z 20014KT 17/14 A2992 RMK A01 T01680135  RH  081%=      5-min Rain = 0
KCR2 110633Z 20013G18KT 17/14 A2992 RMK A01 T01680135  RH  081%=      5-min Rain = 0
KCR2 110634Z 19011KT 17/14 A2992 RMK A01 T01680135  RH  081%=      5-min Rain = 0
KCR2 110635Z 19013KT 17/14 A2992 RMK A01 T01680135  RH  081%=      5-min Rain = 0
KCR2 110636Z 19013KT 17/14 A2992 RMK A01 T01680135  RH  081%=      5-min Rain = 0
KCR2 110637Z 19013KT 17/14 A2992 RMK A01 T01680135  RH  081%=      5-min Rain = 0
KCR2 110638Z 19014KT 17/13 A2992 RMK A01 T01670134  RH  081%=      5-min Rain = 0
KCR2 110639Z 19014KT 17/14 A2992 RMK A01 T01670135  RH  081%=      5-min Rain = 0
KCR2 110640Z 19013KT 17/14 A2992 RMK A01 T01680135  RH  081%=      5-min Rain = 0
KCR2 110641Z 19011KT 17/13 A2992 RMK A01 T01670134  RH  081%=      5-min Rain = 0
KCR2 110642Z 18014KT 17/14 A2991 RMK A01 T01670135  RH  081%=      5-min Rain = 0
KCR2 110643Z 19013KT 17/13 A2992 RMK A01 T01670134  RH  081%=      5-min Rain = 0
KCR2 110644Z 19012KT 17/13 A2992 RMK A01 T01680134  RH  081%=      5-min Rain = 0
KCR2 110645Z 19013KT 17/14 A2992 RMK A01 T01680135  RH  081%=      5-min Rain = 0
KCR2 110646Z 19011KT 17/14 A2992 RMK A01 T01680135  RH  081%=      5-min Rain = 0
KCR2 110647Z 19011KT 17/13 A2992 RMK A01 T01680134  RH  081%=      5-min Rain = 0
KCR2 110648Z 19009KT 17/14 A2992 RMK A01 T01680135  RH  080%=      5-min Rain = 0
KCR2 110649Z 19009KT 17/13 A2992 RMK A01 T01680134  RH  080%=      5-min Rain = 0
KCR2 110650Z 19010KT 17/14 A2992 RMK A01 T01690135  RH  080%=      5-min Rain = 0
KCR2 110651Z 19009KT 17/14 A2992 RMK A01 T01690135  RH  080%=      5-min Rain = 0
KCR2 110652Z 19009KT 17/14 A2992 RMK A01 T01690135  RH  080%=      5-min Rain = 0
KCR2 110653Z 19009KT 17/13 A2992 RMK A01 T01690134  RH  080%=      5-min Rain = 0
KCR2 110654Z 18007KT 17/13 A2992 RMK A01 T01690134  RH  080%=      5-min Rain = 0
KCR2 110655Z 18009KT 17/14 A2992 RMK A01 T01690135  RH  080%=      5-min Rain = 0
KCR2 110656Z 18010KT 17/14 A2992 RMK A01 T01700135  RH  080%=      5-min Rain = 0
KCR2 110657Z 18012KT 17/13 A2992 RMK A01 T01700134  RH  080%=      5-min Rain = 0
KCR2 110658Z 19012KT 17/14 A2992 RMK A01 T01710135  RH  079%=      5-min Rain = 0
KCR2 110659Z 18008KT 17/14 A2992 RMK A01 T01710135  RH  079%=      5-min Rain = 0
KCR2 110700Z 18008KT 17/14 A2992 RMK A01 T01710135  RH  079%=      5-min Rain = 0
KCR2 110701Z 18006KT 17/13 A2992 RMK A01 T01710134  RH  079%=      5-min Rain = 0
KCR2 110702Z 18007KT 17/13 A2992 RMK A01 T01700134  RH  079%=      5-min Rain = 0
KCR2 110703Z 17008KT 17/14 A2992 RMK A01 T01700135  RH  079%=      5-min Rain = 0
KCR2 110704Z 18007KT 17/13 A2992 RMK A01 T01700134  RH  079%=      5-min Rain = 0
KCR2 110705Z 18005KT 17/14 A2992 RMK A01 T01710135  RH  079%=      5-min Rain = 0
KCR2 110706Z 18006KT 17/14 A2992 RMK A01 T01710135  RH  079%=      5-min Rain = 0
KCR2 110707Z 18005KT 17/13 A2992 RMK A01 T01700134  RH  079%=      5-min Rain = 0
KCR2 110708Z 18006KT 17/13 A2992 RMK A01 T01700134  RH  079%=      5-min Rain = 0
KCR2 110709Z 17006KT 17/14 A2992 RMK A01 T01700135  RH  079%=      5-min Rain = 0
KCR2 110710Z 17006KT 17/14 A2992 RMK A01 T01700135  RH  079%=      5-min Rain = 0
KCR2 110711Z 17006KT 17/14 A2992 RMK A01 T01710135  RH  079%=      5-min Rain = 0
KCR2 110712Z 17007KT 17/14 A2992 RMK A01 T01710135  RH  079%=      5-min Rain = 0
KCR2 110713Z 17006KT 17/14 A2992 RMK A01 T01710135  RH  079%=      5-min Rain = 0
KCR2 110714Z 17006KT 17/13 A2992 RMK A01 T01710134  RH  079%=      5-min Rain = 0
KCR2 110715Z 16004KT 17/13 A2992 RMK A01 T01710134  RH  079%=      5-min Rain = 0
KCR2 110716Z 16005KT 17/13 A2992 RMK A01 T01710134  RH  079%=      5-min Rain = 0
KCR2 110717Z 17004KT 17/14 A2992 RMK A01 T01710135  RH  079%=      5-min Rain = 0
KCR2 110718Z 17005KT 17/13 A2992 RMK A01 T01700134  RH  079%=      5-min Rain = 0
KCR2 110719Z 17005KT 17/13 A2992 RMK A01 T01700134  RH  079%=      5-min Rain = 0
KCR2 110720Z 17006KT 17/13 A2992 RMK A01 T01710134  RH  079%=      5-min Rain = 0
KCR2 110721Z 17005KT 17/14 A2992 RMK A01 T01710135  RH  079%=      5-min Rain = 0
KCR2 110722Z 17003KT 17/13 A2992 RMK A01 T01720134  RH  079%=      5-min Rain = 0
KCR2 110723Z 17006KT 17/13 A2992 RMK A01 T01710134  RH  079%=      5-min Rain = 0
KCR2 110724Z 18006KT 17/14 A2992 RMK A01 T01720135  RH  079%=      5-min Rain = 0
KCR2 110725Z 18006KT 17/13 A2992 RMK A01 T01720134  RH  079%=      5-min Rain = 0
KCR2 110726Z 18004KT 17/13 A2992 RMK A01 T01720134  RH  079%=      5-min Rain = 0
KCR2 110727Z 17005KT 17/13 A2992 RMK A01 T01710134  RH  079%=      5-min Rain = 0
KCR2 110728Z 18005KT 17/13 A2992 RMK A01 T01710134  RH  079%=      5-min Rain = 0
KCR2 110729Z 18004KT 17/13 A2992 RMK A01 T01710134  RH  079%=      5-min Rain = 0
KCR2 110730Z 18003KT 17/13 A2992 RMK A01 T01710134  RH  079%=      5-min Rain = 0
KCR2 110731Z 20003KT 17/13 A2992 RMK A01 T01710134  RH  079%=      5-min Rain = 0
KCR2 110732Z 19005KT 17/13 A2992 RMK A01 T01710134  RH  079%=      5-min Rain = 0
KCR2 110733Z 20003KT 17/13 A2992 RMK A01 T01720134  RH  078%=      5-min Rain = 0
KCR2 110734Z 21004KT 17/13 A2992 RMK A01 T01720134  RH  078%=      5-min Rain = 0
KCR2 110735Z 21004KT 17/13 A2992 RMK A01 T01720134  RH  078%=      5-min Rain = 0
KCR2 110736Z 22003KT 17/13 A2992 RMK A01 T01720134  RH  078%=      5-min Rain = 0
KCR2 110737Z 22002KT 17/13 A2992 RMK A01 T01720133  RH  078%=      5-min Rain = 0
KCR2 110738Z 20003KT 17/13 A2992 RMK A01 T01710133  RH  078%=      5-min Rain = 0
KCR2 110739Z 19003KT 17/13 A2992 RMK A01 T01700133  RH  079%=      5-min Rain = 0
KCR2 110740Z 21002KT 17/13 A2992 RMK A01 T01710133  RH  078%=      5-min Rain = 0
KCR2 110741Z 21002KT 17/13 A2992 RMK A01 T01710133  RH  078%=      5-min Rain = 0
KCR2 110742Z 21003KT 17/13 A2992 RMK A01 T01710133  RH  078%=      5-min Rain = 0
KCR2 110743Z 20003KT 17/13 A2992 RMK A01 T01710133  RH  078%=      5-min Rain = 0
KCR2 110744Z 20002KT 17/13 A2992 RMK A01 T01710133  RH  078%=      5-min Rain = 0
KCR2 110745Z 19003KT 17/13 A2992 RMK A01 T01710133  RH  078%=      5-min Rain = 0
KCR2 110746Z 19003KT 17/13 A2992 RMK A01 T01710133  RH  078%=      5-min Rain = 0
KCR2 110747Z 19003KT 17/13 A2992 RMK A01 T01710133  RH  078%=      5-min Rain = 0
KCR2 110748Z 20003KT 17/13 A2992 RMK A01 T01710133  RH  078%=      5-min Rain = 0
KCR2 110749Z 19003KT 17/13 A2992 RMK A01 T01710132  RH  078%=      5-min Rain = 0
KCR2 110750Z 20003KT 17/13 A2992 RMK A01 T01710133  RH  078%=      5-min Rain = 0
KCR2 110751Z 20003KT 17/13 A2992 RMK A01 T01700132  RH  078%=      5-min Rain = 0
KCR2 110752Z 19003KT 17/13 A2992 RMK A01 T01700132  RH  078%=      5-min Rain = 0
KCR2 110753Z 20004KT 17/13 A2992 RMK A01 T01700132  RH  078%=      5-min Rain = 0
KCR2 110754Z 21003KT 17/13 A2992 RMK A01 T01700132  RH  078%=      5-min Rain = 0
KCR2 110755Z 22003KT 17/13 A2992 RMK A01 T01690131  RH  078%=      5-min Rain = 0
KCR2 110756Z 22004KT 17/13 A2992 RMK A01 T01680131  RH  079%=      5-min Rain = 0
KCR2 110757Z 21004KT 17/13 A2992 RMK A01 T01670131  RH  079%=      5-min Rain = 0
KCR2 110758Z 21004KT 17/13 A2992 RMK A01 T01670131  RH  079%=      5-min Rain = 0
KCR2 110759Z 21005KT 17/13 A2992 RMK A01 T01670131  RH  079%=      5-min Rain = 0
KCR2 110800Z 21005KT 17/13 A2992 RMK A01 T01660131  RH  080%=      5-min Rain = 0
KCR2 110801Z 21005KT 17/13 A2992 RMK A01 T01660131  RH  080%=      5-min Rain = 0
KCR2 110802Z 21005KT 17/13 A2992 RMK A01 T01650131  RH  080%=      5-min Rain = 0
KCR2 110803Z 21004KT 16/13 A2992 RMK A01 T01640130  RH  080%=      5-min Rain = 0
KCR2 110804Z 21005KT 16/13 A2992 RMK A01 T01640131  RH  080%=      5-min Rain = 0
KCR2 110805Z 20005KT 16/13 A2992 RMK A01 T01640130  RH  081%=      5-min Rain = 0
KCR2 110806Z 21005KT 16/13 A2992 RMK A01 T01630130  RH  081%=      5-min Rain = 0
KCR2 110807Z 21004KT 16/13 A2992 RMK A01 T01630131  RH  081%=      5-min Rain = 0
KCR2 110808Z 20005KT 16/13 A2992 RMK A01 T01630130  RH  081%=      5-min Rain = 0
KCR2 110809Z 20004KT 16/13 A2992 RMK A01 T01630130  RH  081%=      5-min Rain = 0
KCR2 110810Z 20003KT 16/13 A2992 RMK A01 T01620130  RH  081%=      5-min Rain = 0
KCR2 110811Z 20003KT 16/13 A2992 RMK A01 T01620130  RH  081%=      5-min Rain = 0
KCR2 110812Z 19003KT 16/13 A2992 RMK A01 T01620130  RH  082%=      5-min Rain = 0
KCR2 110813Z 18003KT 16/13 A2992 RMK A01 T01610130  RH  082%=      5-min Rain = 0
KCR2 110814Z 18003KT 16/13 A2992 RMK A01 T01620130  RH  082%=      5-min Rain = 0
KCR2 110815Z 17002KT 16/13 A2992 RMK A01 T01620130  RH  082%=      5-min Rain = 0
KCR2 110816Z 17002KT 16/13 A2992 RMK A01 T01620130  RH  082%=      5-min Rain = 0
KCR2 110817Z 17002KT 16/13 A2992 RMK A01 T01620130  RH  082%=      5-min Rain = 0
KCR2 110818Z 17002KT 16/13 A2992 RMK A01 T01610130  RH  082%=      5-min Rain = 0
KCR2 110819Z 17002KT 16/13 A2992 RMK A01 T01620130  RH  082%=      5-min Rain = 0
KCR2 110820Z 16003KT 16/13 A2992 RMK A01 T01610130  RH  082%=      5-min Rain = 0
KCR2 110821Z 17002KT 16/13 A2992 RMK A01 T01620130  RH  082%=      5-min Rain = 0
KCR2 110822Z 17002KT 16/13 A2992 RMK A01 T01620130  RH  082%=      5-min Rain = 0
KCR2 110823Z 16002KT 16/13 A2992 RMK A01 T01620130  RH  081%=      5-min Rain = 0
KCR2 110824Z 16003KT 16/13 A2992 RMK A01 T01620130  RH  081%=      5-min Rain = 0
KCR2 110825Z 16003KT 16/13 A2992 RMK A01 T01620130  RH  081%=      5-min Rain = 0
KCR2 110826Z 16003KT 16/13 A2992 RMK A01 T01620130  RH  081%=      5-min Rain = 0
KCR2 110827Z 14002KT 16/13 A2992 RMK A01 T01620130  RH  081%=      5-min Rain = 0
KCR2 110828Z 05003KT 16/13 A2992 RMK A01 T01620128  RH  080%=      5-min Rain = 0
KCR2 110829Z 04004KT 16/13 A2992 RMK A01 T01590126  RH  081%=      5-min Rain = 0
KCR2 110830Z 03003KT 16/13 A2992 RMK A01 T01560125  RH  082%=      5-min Rain = 0
KCR2 110831Z 01003KT 15/12 A2992 RMK A01 T01530123  RH  083%=      5-min Rain = 0
KCR2 110832Z 02002KT 15/12 A2992 RMK A01 T01500124  RH  084%=      5-min Rain = 0
KCR2 110833Z 02002KT 15/12 A2992 RMK A01 T01480122  RH  085%=      5-min Rain = 0
KCR2 110834Z 02002KT 15/12 A2992 RMK A01 T01460121  RH  085%=      5-min Rain = 0
KCR2 110835Z 36001KT 15/12 A2992 RMK A01 T01450122  RH  086%=      5-min Rain = 0
KCR2 110836Z 36000KT 14/12 A2992 RMK A01 T01440123  RH  087%=      5-min Rain = 0
KCR2 110837Z 33001KT 14/12 A2992 RMK A01 T01440123  RH  087%=      5-min Rain = 0
KCR2 110838Z 30000KT 14/12 A2992 RMK A01 T01440124  RH  088%=      5-min Rain = 0
KCR2 110839Z 29000KT 14/12 A2992 RMK A01 T01430123  RH  088%=      5-min Rain = 0
KCR2 110840Z 29000KT 14/12 A2992 RMK A01 T01430123  RH  088%=      5-min Rain = 0
KCR2 110841Z 28000KT 14/12 A2992 RMK A01 T01420123  RH  088%=      5-min Rain = 0
KCR2 110842Z 28001KT 14/12 A2992 RMK A01 T01420124  RH  089%=      5-min Rain = 0
KCR2 110843Z 27001KT 14/12 A2992 RMK A01 T01420124  RH  089%=      5-min Rain = 0
KCR2 110844Z 31001KT 14/12 A2992 RMK A01 T01410123  RH  089%=      5-min Rain = 0
KCR2 110845Z 30001KT 14/12 A2992 RMK A01 T01400122  RH  089%=      5-min Rain = 0
KCR2 110846Z 30001KT 14/12 A2992 RMK A01 T01400122  RH  089%=      5-min Rain = 0
KCR2 110847Z 31001KT 14/12 A2992 RMK A01 T01390121  RH  089%=      5-min Rain = 0
KCR2 110848Z 31001KT 14/12 A2992 RMK A01 T01390121  RH  089%=      5-min Rain = 0
KCR2 110849Z 32000KT 14/12 A2992 RMK A01 T01380121  RH  089%=      5-min Rain = 0
KCR2 110850Z 31001KT 14/12 A2992 RMK A01 T01380122  RH  090%=      5-min Rain = 0
KCR2 110851Z 32001KT 14/12 A2992 RMK A01 T01380122  RH  090%=      5-min Rain = 0
KCR2 110852Z 34002KT 14/12 A2992 RMK A01 T01380121  RH  089%=      5-min Rain = 0
KCR2 110853Z 02002KT 14/12 A2992 RMK A01 T01370120  RH  090%=      5-min Rain = 0
KCR2 110854Z 04002KT 14/12 A2992 RMK A01 T01370120  RH  090%=      5-min Rain = 0
KCR2 110855Z 05003KT 14/12 A2992 RMK A01 T01360121  RH  090%=      5-min Rain = 0
KCR2 110856Z 05003KT 14/12 A2992 RMK A01 T01360121  RH  091%=      5-min Rain = 0
KCR2 110857Z 04004KT 14/12 A2992 RMK A01 T01360121  RH  091%=      5-min Rain = 0
KCR2 110858Z 04003KT 14/12 A2993 RMK A01 T01350121  RH  091%=      5-min Rain = 0
KCR2 110859Z 04004KT 14/12 A2993 RMK A01 T01350120  RH  091%=      5-min Rain = 0
KCR2 110900Z 04004KT 13/12 A2993 RMK A01 T01340120  RH  091%=      5-min Rain = 0
KCR2 110901Z 04004KT 13/12 A2993 RMK A01 T01340120  RH  091%=      5-min Rain = 0
KCR2 110902Z 03004KT 13/12 A2993 RMK A01 T01340120  RH  092%=      5-min Rain = 0
KCR2 110903Z 04004KT 13/12 A2993 RMK A01 T01340121  RH  092%=      5-min Rain = 0
KCR2 110904Z 03004KT 13/12 A2993 RMK A01 T01330120  RH  092%=      5-min Rain = 0
KCR2 110905Z 03004KT 13/12 A2993 RMK A01 T01330120  RH  092%=      5-min Rain = 0
KCR2 110906Z 03004KT 13/12 A2992 RMK A01 T01330120  RH  092%=      5-min Rain = 0
KCR2 110907Z 03004KT 13/12 A2992 RMK A01 T01330121  RH  092%=      5-min Rain = 0
KCR2 110908Z 03004KT 13/12 A2992 RMK A01 T01330121  RH  092%=      5-min Rain = 0
KCR2 110909Z 03004KT 13/12 A2992 RMK A01 T01330121  RH  093%=      5-min Rain = 0
KCR2 110910Z 03004KT 13/12 A2992 RMK A01 T01330121  RH  093%=      5-min Rain = 0
KCR2 110911Z 03003KT 13/12 A2992 RMK A01 T01330121  RH  093%=      5-min Rain = 0
KCR2 110912Z 03003KT 13/12 A2992 RMK A01 T01330122  RH  093%=      5-min Rain = 0
KCR2 110913Z 03002KT 13/12 A2992 RMK A01 T01330121  RH  093%=      5-min Rain = 0
KCR2 110914Z 02002KT 13/12 A2992 RMK A01 T01330121  RH  092%=      5-min Rain = 0
KCR2 110915Z 01002KT 13/12 A2992 RMK A01 T01330121  RH  093%=      5-min Rain = 0
KCR2 110916Z 03002KT 13/12 A2992 RMK A01 T01330122  RH  093%=      5-min Rain = 0
KCR2 110917Z 03002KT 13/12 A2992 RMK A01 T01330122  RH  093%=      5-min Rain = 0
KCR2 110918Z 04002KT 13/12 A2992 RMK A01 T01330121  RH  093%=      5-min Rain = 0
KCR2 110919Z 02001KT 13/12 A2992 RMK A01 T01330121  RH  092%=      5-min Rain = 0
KCR2 110920Z 03002KT 13/12 A2992 RMK A01 T01320120  RH  092%=      5-min Rain = 0
KCR2 110921Z 01001KT 13/12 A2992 RMK A01 T01320120  RH  092%=      5-min Rain = 0
KCR2 110922Z 02002KT 13/12 A2992 RMK A01 T01320120  RH  092%=      5-min Rain = 0
KCR2 110923Z 04003KT 13/12 A2992 RMK A01 T01320120  RH  093%=      5-min Rain = 0
KCR2 110924Z 05003KT 13/12 A2992 RMK A01 T01320120  RH  093%=      5-min Rain = 0
KCR2 110925Z 05003KT 13/12 A2992 RMK A01 T01320121  RH  093%=      5-min Rain = 0
KCR2 110926Z 05003KT 13/12 A2992 RMK A01 T01320121  RH  093%=      5-min Rain = 0
KCR2 110927Z 05003KT 13/12 A2992 RMK A01 T01320121  RH  093%=      5-min Rain = 0
KCR2 110928Z 05003KT 13/12 A2992 RMK A01 T01320121  RH  093%=      5-min Rain = 0
KCR2 110929Z 06003KT 13/12 A2992 RMK A01 T01320121  RH  093%=      5-min Rain = 0
KCR2 110930Z 05003KT 13/12 A2992 RMK A01 T01320122  RH  093%=      5-min Rain = 0
KCR2 110931Z 05004KT 13/12 A2992 RMK A01 T01320121  RH  093%=      5-min Rain = 0
KCR2 110932Z 05003KT 13/12 A2992 RMK A01 T01320121  RH  093%=      5-min Rain = 0
KCR2 110933Z 05003KT 13/12 A2992 RMK A01 T01320121  RH  093%=      5-min Rain = 0
KCR2 110934Z 05003KT 13/12 A2992 RMK A01 T01320121  RH  093%=      5-min Rain = 0
KCR2 110935Z 06003KT 13/12 A2992 RMK A01 T01310120  RH  093%=      5-min Rain = 0
KCR2 110936Z 05003KT 13/12 A2993 RMK A01 T01310120  RH  093%=      5-min Rain = 0
KCR2 110937Z 05003KT 13/12 A2993 RMK A01 T01310120  RH  093%=      5-min Rain = 0
KCR2 110938Z 06002KT 13/12 A2993 RMK A01 T01310121  RH  093%=      5-min Rain = 0
KCR2 110939Z 06002KT 13/12 A2992 RMK A01 T01310121  RH  093%=      5-min Rain = 0
KCR2 110940Z 05002KT 13/12 A2992 RMK A01 T01310121  RH  093%=      5-min Rain = 0
KCR2 110941Z 04003KT 13/12 A2992 RMK A01 T01310120  RH  093%=      5-min Rain = 0
KCR2 110942Z 03003KT 13/12 A2993 RMK A01 T01290117  RH  093%=      5-min Rain = 0
KCR2 110943Z 03003KT 13/12 A2993 RMK A01 T01280117  RH  093%=      5-min Rain = 0
KCR2 110944Z 03003KT 13/12 A2993 RMK A01 T01280118  RH  094%=      5-min Rain = 0
KCR2 110945Z 03002KT 13/12 A2993 RMK A01 T01280118  RH  094%=      5-min Rain = 0
KCR2 110946Z 03002KT 13/12 A2993 RMK A01 T01280118  RH  094%=      5-min Rain = 0
KCR2 110947Z 04002KT 13/12 A2993 RMK A01 T01270118  RH  094%=      5-min Rain = 0
KCR2 110948Z 04002KT 13/12 A2993 RMK A01 T01270118  RH  094%=      5-min Rain = 0
KCR2 110949Z 03003KT 13/12 A2993 RMK A01 T01270118  RH  094%=      5-min Rain = 0
KCR2 110950Z 03003KT 13/12 A2993 RMK A01 T01270117  RH  094%=      5-min Rain = 0
KCR2 110951Z 03002KT 13/12 A2993 RMK A01 T01260116  RH  094%=      5-min Rain = 0
KCR2 110952Z 05002KT 13/12 A2993 RMK A01 T01260116  RH  094%=      5-min Rain = 0
KCR2 110953Z 04002KT 13/12 A2993 RMK A01 T01260116  RH  094%=      5-min Rain = 0
KCR2 110954Z 02002KT 13/12 A2993 RMK A01 T01250116  RH  094%=      5-min Rain = 0
KCR2 110955Z 02002KT 13/12 A2993 RMK A01 T01250116  RH  094%=      5-min Rain = 0
KCR2 110956Z 03002KT 13/12 A2992 RMK A01 T01250116  RH  094%=      5-min Rain = 0
KCR2 110957Z 03002KT 12/12 A2993 RMK A01 T01240115  RH  094%=      5-min Rain = 0
KCR2 110958Z 03002KT 12/11 A2993 RMK A01 T01230114  RH  094%=      5-min Rain = 0
KCR2 110959Z 03002KT 12/11 A2993 RMK A01 T01230114  RH  094%=      5-min Rain = 0
KCR2 111000Z 04002KT 12/11 A2992 RMK A01 T01220114  RH  094%=      5-min Rain = 0
KCR2 111001Z 06002KT 12/11 A2992 RMK A01 T01220114  RH  095%=      5-min Rain = 0
KCR2 111002Z 07002KT 12/11 A2992 RMK A01 T01220114  RH  095%=      5-min Rain = 0
KCR2 111003Z 05002KT 12/11 A2993 RMK A01 T01220114  RH  095%=      5-min Rain = 0
KCR2 111004Z 00002KT 12/11 A2993 RMK A01 T01220113  RH  094%=      5-min Rain = 0
KCR2 111005Z 05001KT 12/11 A2993 RMK A01 T01210113  RH  094%=      5-min Rain = 0
KCR2 111006Z 08002KT 12/11 A2993 RMK A01 T01210113  RH  095%=      5-min Rain = 0
KCR2 111007Z 06002KT 12/11 A2993 RMK A01 T01210113  RH  095%=      5-min Rain = 0
KCR2 111008Z 02003KT 12/11 A2993 RMK A01 T01210114  RH  095%=      5-min Rain = 0
KCR2 111009Z 03002KT 12/11 A2993 RMK A01 T01210113  RH  095%=      5-min Rain = 0
KCR2 111010Z 04002KT 12/11 A2993 RMK A01 T01200112  RH  095%=      5-min Rain = 0
KCR2 111011Z 04002KT 12/11 A2993 RMK A01 T01200113  RH  095%=      5-min Rain = 0
KCR2 111012Z 04002KT 12/11 A2993 RMK A01 T01210114  RH  095%=      5-min Rain = 0
KCR2 111013Z 05002KT 12/11 A2993 RMK A01 T01210114  RH  095%=      5-min Rain = 0
KCR2 111014Z 04002KT 12/12 A2993 RMK A01 T01220115  RH  096%=      5-min Rain = 0
KCR2 111015Z 05002KT 12/12 A2993 RMK A01 T01230117  RH  096%=      5-min Rain = 0
KCR2 111016Z 04002KT 12/12 A2993 RMK A01 T01240118  RH  096%=      5-min Rain = 0
KCR2 111017Z 03003KT 12/12 A2993 RMK A01 T01240117  RH  096%=      5-min Rain = 0
KCR2 111018Z 04003KT 12/12 A2993 RMK A01 T01220115  RH  095%=      5-min Rain = 0
KCR2 111019Z 04003KT 12/11 A2993 RMK A01 T01210113  RH  095%=      5-min Rain = 0
KCR2 111020Z 04003KT 12/11 A2993 RMK A01 T01200112  RH  095%=      5-min Rain = 0
KCR2 111021Z 04003KT 12/11 A2993 RMK A01 T01200112  RH  095%=      5-min Rain = 0
KCR2 111022Z 04002KT 12/11 A2993 RMK A01 T01200112  RH  095%=      5-min Rain = 0
KCR2 111023Z 04002KT 12/11 A2993 RMK A01 T01200112  RH  095%=      5-min Rain = 0
KCR2 111024Z 04002KT 12/11 A2993 RMK A01 T01200113  RH  095%=      5-min Rain = 0
KCR2 111025Z 05003KT 12/11 A2993 RMK A01 T01210114  RH  095%=      5-min Rain = 0
KCR2 111026Z 05003KT 12/12 A2993 RMK A01 T01220115  RH  096%=      5-min Rain = 0
KCR2 111027Z 04003KT 12/12 A2993 RMK A01 T01220115  RH  096%=      5-min Rain = 0
KCR2 111028Z 05002KT 12/12 A2993 RMK A01 T01220115  RH  096%=      5-min Rain = 0
KCR2 111029Z 09002KT 12/12 A2993 RMK A01 T01220115  RH  096%=      5-min Rain = 0
KCR2 111030Z 09001KT 12/12 A2993 RMK A01 T01220115  RH  096%=      5-min Rain = 0
KCR2 111031Z 05001KT 12/12 A2993 RMK A01 T01220115  RH  096%=      5-min Rain = 0
KCR2 111032Z 04001KT 12/12 A2993 RMK A01 T01220115  RH  095%=      5-min Rain = 0
KCR2 111033Z 12000KT 12/12 A2993 RMK A01 T01220115  RH  095%=      5-min Rain = 0
KCR2 111034Z 15000KT 12/11 A2993 RMK A01 T01220114  RH  095%=      5-min Rain = 0
KCR2 111035Z 14001KT 12/11 A2993 RMK A01 T01210114  RH  095%=      5-min Rain = 0
KCR2 111036Z 10002KT 12/11 A2993 RMK A01 T01220114  RH  095%=      5-min Rain = 0
KCR2 111037Z 14001KT 12/12 A2993 RMK A01 T01220115  RH  095%=      5-min Rain = 0
KCR2 111038Z 15000KT 12/12 A2993 RMK A01 T01220115  RH  095%=      5-min Rain = 0
KCR2 111039Z 04001KT 12/12 A2994 RMK A01 T01230116  RH  096%=      5-min Rain = 0
KCR2 111040Z 04002KT 12/12 A2994 RMK A01 T01230116  RH  096%=      5-min Rain = 0
KCR2 111041Z 04001KT 12/12 A2994 RMK A01 T01230116  RH  095%=      5-min Rain = 0
KCR2 111042Z 06000KT 12/12 A2994 RMK A01 T01220115  RH  095%=      5-min Rain = 0
KCR2 111043Z 16001KT 12/11 A2994 RMK A01 T01220114  RH  095%=      5-min Rain = 0
KCR2 111044Z 18001KT 12/11 A2994 RMK A01 T01220114  RH  095%=      5-min Rain = 0
KCR2 111045Z 08000KT 12/11 A2994 RMK A01 T01220114  RH  095%=      5-min Rain = 0
KCR2 111046Z 07000KT 12/11 A2994 RMK A01 T01210113  RH  095%=      5-min Rain = 0
KCR2 111047Z 05000KT 12/11 A2994 RMK A01 T01210112  RH  095%=      5-min Rain = 0
KCR2 111048Z 06001KT 12/11 A2994 RMK A01 T01200112  RH  095%=      5-min Rain = 0
KCR2 111049Z 04002KT 12/11 A2994 RMK A01 T01210113  RH  095%=      5-min Rain = 0
KCR2 111050Z 03003KT 12/12 A2994 RMK A01 T01220115  RH  095%=      5-min Rain = 0
KCR2 111051Z 04004KT 12/12 A2994 RMK A01 T01220115  RH  095%=      5-min Rain = 0
KCR2 111052Z 05005KT 12/12 A2994 RMK A01 T01230117  RH  096%=      5-min Rain = 0
KCR2 111053Z 06004KT 12/12 A2994 RMK A01 T01240118  RH  096%=      5-min Rain = 0
KCR2 111054Z 06003KT 13/12 A2994 RMK A01 T01260120  RH  096%=      5-min Rain = 0
KCR2 111055Z 08002KT 13/12 A2994 RMK A01 T01270121  RH  096%=      5-min Rain = 0
KCR2 111056Z 10003KT 13/12 A2994 RMK A01 T01270121  RH  096%=      5-min Rain = 0
KCR2 111057Z 11003KT 13/12 A2994 RMK A01 T01280122  RH  096%=      5-min Rain = 0
KCR2 111058Z 11003KT 13/12 A2993 RMK A01 T01280122  RH  096%=      5-min Rain = 0
KCR2 111059Z 11003KT 13/12 A2993 RMK A01 T01280122  RH  096%=      5-min Rain = 0
KCR2 111100Z 11002KT 13/12 A2994 RMK A01 T01290122  RH  096%=      5-min Rain = 0
KCR2 111101Z 08002KT 13/12 A2994 RMK A01 T01290123  RH  096%=      5-min Rain = 0
KCR2 111102Z 07002KT 13/12 A2994 RMK A01 T01290122  RH  096%=      5-min Rain = 0
KCR2 111103Z 07002KT 13/12 A2994 RMK A01 T01290122  RH  096%=      5-min Rain = 0
KCR2 111104Z 07002KT 13/12 A2994 RMK A01 T01290122  RH  096%=      5-min Rain = 0
KCR2 111105Z 05002KT 13/12 A2994 RMK A01 T01300123  RH  095%=      5-min Rain = 0
KCR2 111106Z 04003KT 13/12 A2994 RMK A01 T01300123  RH  095%=      5-min Rain = 0
KCR2 111107Z 03003KT 13/12 A2994 RMK A01 T01300123  RH  095%=      5-min Rain = 0
KCR2 111108Z 03003KT 13/12 A2994 RMK A01 T01300122  RH  095%=      5-min Rain = 0
KCR2 111109Z 02003KT 13/12 A2994 RMK A01 T01300122  RH  095%=      5-min Rain = 0
KCR2 111110Z 06001KT 13/12 A2994 RMK A01 T01300122  RH  095%=      5-min Rain = 0
KCR2 111111Z 08000KT 13/12 A2994 RMK A01 T01300122  RH  095%=      5-min Rain = 0
KCR2 111112Z 00000KT 13/12 A2994 RMK A01 T01300122  RH  095%=      5-min Rain = 0
KCR2 111113Z 30000KT 13/12 A2994 RMK A01 T01300122  RH  095%=      5-min Rain = 0
KCR2 111114Z 27000KT 13/12 A2994 RMK A01 T01300122  RH  095%=      5-min Rain = 0
KCR2 111115Z 27000KT 13/12 A2994 RMK A01 T01300122  RH  095%=      5-min Rain = 0
KCR2 111116Z 30001KT 13/12 A2994 RMK A01 T01300122  RH  095%=      5-min Rain = 0
KCR2 111117Z 31001KT 13/12 A2994 RMK A01 T01310123  RH  095%=      5-min Rain = 0
KCR2 111118Z 31001KT 13/12 A2994 RMK A01 T01300122  RH  095%=      5-min Rain = 0
KCR2 111119Z 31001KT 13/12 A2994 RMK A01 T01300122  RH  095%=      5-min Rain = 0
KCR2 111120Z 32002KT 13/12 A2994 RMK A01 T01300122  RH  095%=      5-min Rain = 0
KCR2 111121Z 34002KT 13/12 A2994 RMK A01 T01300122  RH  095%=      5-min Rain = 0
KCR2 111122Z 35003KT 13/12 A2994 RMK A01 T01290121  RH  095%=      5-min Rain = 0
KCR2 111123Z 35002KT 13/12 A2994 RMK A01 T01290121  RH  095%=      5-min Rain = 0
KCR2 111124Z 32002KT 13/12 A2994 RMK A01 T01290120  RH  095%=      5-min Rain = 0
KCR2 111125Z 30002KT 13/12 A2994 RMK A01 T01290121  RH  095%=      5-min Rain = 0
KCR2 111126Z 29002KT 13/12 A2994 RMK A01 T01280120  RH  095%=      5-min Rain = 0
KCR2 111127Z 30001KT 13/12 A2994 RMK A01 T01280120  RH  095%=      5-min Rain = 0
KCR2 111128Z 33001KT 13/12 A2994 RMK A01 T01280120  RH  095%=      5-min Rain = 0
KCR2 111129Z 35002KT 13/12 A2994 RMK A01 T01280120  RH  095%=      5-min Rain = 0
KCR2 111130Z 35003KT 13/12 A2994 RMK A01 T01280120  RH  095%=      5-min Rain = 0
KCR2 111131Z 34002KT 13/12 A2994 RMK A01 T01280121  RH  095%=      5-min Rain = 0
KCR2 111132Z 35003KT 13/12 A2994 RMK A01 T01280121  RH  095%=      5-min Rain = 0
KCR2 111133Z 35003KT 13/12 A2994 RMK A01 T01290121  RH  095%=      5-min Rain = 0
KCR2 111134Z 36003KT 13/12 A2994 RMK A01 T01280120  RH  095%=      5-min Rain = 0
KCR2 111135Z 36003KT 13/12 A2994 RMK A01 T01280121  RH  095%=      5-min Rain = 0
KCR2 111136Z 35002KT 13/12 A2994 RMK A01 T01280121  RH  095%=      5-min Rain = 0
KCR2 111137Z 34002KT 13/12 A2994 RMK A01 T01280121  RH  095%=      5-min Rain = 0
KCR2 111138Z 34001KT 13/12 A2994 RMK A01 T01280120  RH  095%=      5-min Rain = 0
KCR2 111139Z 36001KT 13/12 A2994 RMK A01 T01280120  RH  095%=      5-min Rain = 0
KCR2 111140Z 01001KT 13/12 A2994 RMK A01 T01280120  RH  095%=      5-min Rain = 0
KCR2 111141Z 02001KT 13/12 A2994 RMK A01 T01290121  RH  095%=      5-min Rain = 0
KCR2 111142Z 02001KT 13/12 A2994 RMK A01 T01290121  RH  095%=      5-min Rain = 0
KCR2 111143Z 03001KT 13/12 A2994 RMK A01 T01290121  RH  095%=      5-min Rain = 0
KCR2 111144Z 04001KT 13/12 A2994 RMK A01 T01290121  RH  095%=      5-min Rain = 0
KCR2 111145Z 04001KT 13/12 A2994 RMK A01 T01290121  RH  095%=      5-min Rain = 0
KCR2 111146Z 04001KT 13/12 A2994 RMK A01 T01300122  RH  095%=      5-min Rain = 0
KCR2 111147Z 03001KT 13/12 A2994 RMK A01 T01300122  RH  095%=      5-min Rain = 0
KCR2 111148Z 03001KT 13/12 A2994 RMK A01 T01300122  RH  095%=      5-min Rain = 0
KCR2 111149Z 03000KT 13/12 A2994 RMK A01 T01300122  RH  095%=      5-min Rain = 0
KCR2 111150Z 00000KT 13/12 A2994 RMK A01 T01300122  RH  095%=      5-min Rain = 0
KCR2 111151Z 00000KT 13/12 A2994 RMK A01 T01300122  RH  095%=      5-min Rain = 0
KCR2 111152Z 05001KT 13/12 A2994 RMK A01 T01300122  RH  095%=      5-min Rain = 0
KCR2 111153Z 05002KT 13/12 A2994 RMK A01 T01310123  RH  095%=      5-min Rain = 0
KCR2 111154Z 06003KT 13/12 A2994 RMK A01 T01310123  RH  095%=      5-min Rain = 0
KCR2 111155Z 07003KT 13/12 A2994 RMK A01 T01310123  RH  095%=      5-min Rain = 0
KCR2 111156Z 08002KT 13/12 A2994 RMK A01 T01310123  RH  095%=      5-min Rain = 0
KCR2 111157Z 07003KT 13/12 A2994 RMK A01 T01320123  RH  095%=      5-min Rain = 0
KCR2 111158Z 05003KT 13/12 A2994 RMK A01 T01320124  RH  095%=      5-min Rain = 0
KCR2 111159Z 05003KT 13/12 A2994 RMK A01 T01330124  RH  095%=      5-min Rain = 0
KCR2 111200Z 05004KT 13/12 A2994 RMK A01 T01330124  RH  094%=      5-min Rain = 0
KCR2 111201Z 05003KT 13/12 A2994 RMK A01 T01320123  RH  094%=      5-min Rain = 0
KCR2 111202Z 05003KT 13/12 A2994 RMK A01 T01320123  RH  094%=      5-min Rain = 0
KCR2 111203Z 06003KT 13/12 A2994 RMK A01 T01320123  RH  094%=      5-min Rain = 0
KCR2 111204Z 04002KT 13/12 A2994 RMK A01 T01330124  RH  094%=      5-min Rain = 0
KCR2 111205Z 04002KT 13/12 A2994 RMK A01 T01330124  RH  094%=      5-min Rain = 0
KCR2 111206Z 04001KT 13/12 A2994 RMK A01 T01330123  RH  094%=      5-min Rain = 0
KCR2 111207Z 04000KT 13/12 A2995 RMK A01 T01330123  RH  094%=      5-min Rain = 0
KCR2 111208Z 00000KT 13/12 A2995 RMK A01 T01330123  RH  094%=      5-min Rain = 0
KCR2 111209Z 00000KT 13/12 A2995 RMK A01 T01330124  RH  094%=      5-min Rain = 0
KCR2 111210Z 25000KT 13/12 A2996 RMK A01 T01340124  RH  094%=      5-min Rain = 0
KCR2 111211Z 24002KT 13/12 A2996 RMK A01 T01340124  RH  094%=      5-min Rain = 0
KCR2 111212Z 26002KT 13/13 A2996 RMK A01 T01340125  RH  094%=      5-min Rain = 0
KCR2 111213Z 29003KT 13/13 A2996 RMK A01 T01340125  RH  094%=      5-min Rain = 0
KCR2 111214Z 28004KT 14/13 A2996 RMK A01 T01350125  RH  094%=      5-min Rain = 0
KCR2 111215Z 26004KT 14/13 A2996 RMK A01 T01350125  RH  094%=      5-min Rain = 0
KCR2 111216Z 22005KT 14/13 A2996 RMK A01 T01350125  RH  094%=      5-min Rain = 0
KCR2 111217Z 23008KT 14/13 A2996 RMK A01 T01350126  RH  094%=      5-min Rain = 0
KCR2 111218Z 25008KT 14/13 A2997 RMK A01 T01380130  RH  095%=      5-min Rain = 0
KCR2 111219Z 32007KT 14/13 A2997 RMK A01 T01420131  RH  093%=      5-min Rain = 0
KCR2 111220Z 30004KT 14/13 A2997 RMK A01 T01390126  RH  091%=      5-min Rain = 0
KCR2 111221Z 27003KT 14/12 A2996 RMK A01 T01380124  RH  092%=      5-min Rain = 0
KCR2 111222Z 29005KT 14/13 A2997 RMK A01 T01370125  RH  092%=      5-min Rain = 0
KCR2 111223Z 31006KT 14/13 A2997 RMK A01 T01370127  RH  093%=      5-min Rain = 0
KCR2 111224Z 33005KT 14/13 A2997 RMK A01 T01380127  RH  093%=      5-min Rain = 0
KCR2 111225Z 33005KT 14/13 A2997 RMK A01 T01370126  RH  093%=      5-min Rain = 0
KCR2 111226Z 33004KT 14/13 A2997 RMK A01 T01370125  RH  093%=      5-min Rain = 0
KCR2 111227Z 34004KT 14/13 A2997 RMK A01 T01360126  RH  093%=      5-min Rain = 0
KCR2 111228Z 35002KT 14/13 A2997 RMK A01 T01370126  RH  094%=      5-min Rain = 0
KCR2 111229Z 35003KT 14/13 A2997 RMK A01 T01360126  RH  094%=      5-min Rain = 0
KCR2 111230Z 35004KT 14/13 A2997 RMK A01 T01360126  RH  094%=      5-min Rain = 0
KCR2 111231Z 00005KT 14/13 A2997 RMK A01 T01360126  RH  094%=      5-min Rain = 0
KCR2 111232Z 00004KT 14/13 A2997 RMK A01 T01360126  RH  094%=      5-min Rain = 0
KCR2 111233Z 36003KT 14/13 A2997 RMK A01 T01360127  RH  094%=      5-min Rain = 0
KCR2 111234Z 34003KT 14/13 A2997 RMK A01 T01360127  RH  094%=      5-min Rain = 0
KCR2 111235Z 34003KT 14/13 A2997 RMK A01 T01350127  RH  094%=      5-min Rain = 0
KCR2 111236Z 35003KT 14/13 A2997 RMK A01 T01360127  RH  095%=      5-min Rain = 0
KCR2 111237Z 01003KT 14/13 A2997 RMK A01 T01360127  RH  095%=      5-min Rain = 0
KCR2 111238Z 02004KT 14/13 A2997 RMK A01 T01360127  RH  095%=      5-min Rain = 0
KCR2 111239Z 02004KT 14/13 A2997 RMK A01 T01360127  RH  095%=      5-min Rain = 0
KCR2 111240Z 01004KT 14/13 A2997 RMK A01 T01360127  RH  095%=      5-min Rain = 0
KCR2 111241Z 02004KT 14/13 A2997 RMK A01 T01360127  RH  095%=      5-min Rain = 0
KCR2 111242Z 02004KT 14/13 A2997 RMK A01 T01350127  RH  095%=      5-min Rain = 0
KCR2 111243Z 03004KT 14/13 A2997 RMK A01 T01360127  RH  095%=      5-min Rain = 0
KCR2 111244Z 02003KT 14/13 A2997 RMK A01 T01360127  RH  095%=      5-min Rain = 0
KCR2 111245Z 02003KT 14/13 A2997 RMK A01 T01360127  RH  095%=      5-min Rain = 0
KCR2 111246Z 02004KT 14/13 A2997 RMK A01 T01350127  RH  095%=      5-min Rain = 0
KCR2 111247Z 04003KT 14/13 A2997 RMK A01 T01360127  RH  095%=      5-min Rain = 0
KCR2 111248Z 01003KT 14/13 A2997 RMK A01 T01360128  RH  095%=      5-min Rain = 0
KCR2 111249Z 03003KT 14/13 A2997 RMK A01 T01350127  RH  095%=      5-min Rain = 0
KCR2 111250Z 07003KT 14/13 A2997 RMK A01 T01360128  RH  095%=      5-min Rain = 0
KCR2 111251Z 06002KT 14/13 A2997 RMK A01 T01360128  RH  095%=      5-min Rain = 0
KCR2 111252Z 03002KT 14/13 A2997 RMK A01 T01360128  RH  095%=      5-min Rain = 0
KCR2 111253Z 04001KT 14/13 A2997 RMK A01 T01350128  RH  095%=      5-min Rain = 0
KCR2 111254Z 03001KT 14/13 A2998 RMK A01 T01360128  RH  095%=      5-min Rain = 0
KCR2 111255Z 05001KT 14/13 A2998 RMK A01 T01360128  RH  095%=      5-min Rain = 0
KCR2 111256Z 04002KT 14/13 A2998 RMK A01 T01360128  RH  095%=      5-min Rain = 0
KCR2 111257Z 07001KT 14/13 A2997 RMK A01 T01360128  RH  095%=      5-min Rain = 0
KCR2 111258Z 05001KT 14/13 A2998 RMK A01 T01360128  RH  095%=      5-min Rain = 0
KCR2 111259Z 04002KT 14/13 A2998 RMK A01 T01360128  RH  095%=      5-min Rain = 0
KCR2 111300Z 06001KT 14/13 A2998 RMK A01 T01360128  RH  095%=      5-min Rain = 0
KCR2 111301Z 07001KT 14/13 A2997 RMK A01 T01360128  RH  095%=      5-min Rain = 0
KCR2 111302Z 07001KT 14/13 A2997 RMK A01 T01360129  RH  095%=      5-min Rain = 0
KCR2 111303Z 08001KT 14/13 A2997 RMK A01 T01360129  RH  095%=      5-min Rain = 0
KCR2 111304Z 06002KT 14/13 A2998 RMK A01 T01370129  RH  095%=      5-min Rain = 0
KCR2 111305Z 08002KT 14/13 A2997 RMK A01 T01370129  RH  095%=      5-min Rain = 0
KCR2 111306Z 09002KT 14/13 A2997 RMK A01 T01370129  RH  095%=      5-min Rain = 0
KCR2 111307Z 07002KT 14/13 A2997 RMK A01 T01370129  RH  095%=      5-min Rain = 0
KCR2 111308Z 04003KT 14/13 A2997 RMK A01 T01370129  RH  095%=      5-min Rain = 0
KCR2 111309Z 01003KT 14/13 A2997 RMK A01 T01370129  RH  095%=      5-min Rain = 0
KCR2 111310Z 05002KT 14/13 A2997 RMK A01 T01370129  RH  095%=      5-min Rain = 0
KCR2 111311Z 16001KT 14/13 A2997 RMK A01 T01370129  RH  095%=      5-min Rain = 0
KCR2 111312Z 30001KT 14/13 A2998 RMK A01 T01370129  RH  095%=      5-min Rain = 0
KCR2 111313Z 33003KT 14/13 A2998 RMK A01 T01370129  RH  095%=      5-min Rain = 0
KCR2 111314Z 29002KT 14/13 A2999 RMK A01 T01370129  RH  095%=      5-min Rain = 0
KCR2 111315Z 27004KT 14/13 A2999 RMK A01 T01370129  RH  095%=      5-min Rain = 0
KCR2 111316Z 27003KT 14/13 A2999 RMK A01 T01380130  RH  095%=      5-min Rain = 0
KCR2 111317Z 28003KT 14/13 A2999 RMK A01 T01380130  RH  095%=      5-min Rain = 0
KCR2 111318Z 29003KT 14/13 A2999 RMK A01 T01390131  RH  095%=      5-min Rain = 0
KCR2 111319Z 28002KT 14/13 A2999 RMK A01 T01380130  RH  095%=      5-min Rain = 0
KCR2 111320Z 26001KT 14/13 A2999 RMK A01 T01380130  RH  095%=      5-min Rain = 0
KCR2 111321Z 24001KT 14/13 A2999 RMK A01 T01380130  RH  095%=      5-min Rain = 0
KCR2 111322Z 23001KT 14/13 A2999 RMK A01 T01380130  RH  095%=      5-min Rain = 0
KCR2 111323Z 29000KT 14/13 A2999 RMK A01 T01380130  RH  095%=      5-min Rain = 0
KCR2 111324Z 00000KT 14/13 A2999 RMK A01 T01380130  RH  095%=      5-min Rain = 0
KCR2 111325Z 03001KT 14/13 A2999 RMK A01 T01380130  RH  095%=      5-min Rain = 0
KCR2 111326Z 06001KT 14/13 A2999 RMK A01 T01380130  RH  095%=      5-min Rain = 0
KCR2 111327Z 06002KT 14/13 A2998 RMK A01 T01380130  RH  095%=      5-min Rain = 0
KCR2 111328Z 07002KT 14/13 A2998 RMK A01 T01380130  RH  095%=      5-min Rain = 0
KCR2 111329Z 07002KT 14/13 A2998 RMK A01 T01380130  RH  095%=      5-min Rain = 0
KCR2 111330Z 06001KT 14/13 A2999 RMK A01 T01380130  RH  095%=      5-min Rain = 0
KCR2 111331Z 09002KT 14/13 A2999 RMK A01 T01380130  RH  095%=      5-min Rain = 0
KCR2 111332Z 11002KT 14/13 A2999 RMK A01 T01380130  RH  095%=      5-min Rain = 0
KCR2 111333Z 10002KT 14/13 A2999 RMK A01 T01380130  RH  095%=      5-min Rain = 0
KCR2 111334Z 09002KT 14/13 A2999 RMK A01 T01380130  RH  095%=      5-min Rain = 0
KCR2 111335Z 10003KT 14/13 A2999 RMK A01 T01390131  RH  095%=      5-min Rain = 0
KCR2 111336Z 10003KT 14/13 A2999 RMK A01 T01390131  RH  095%=      5-min Rain = 0
KCR2 111337Z 09004KT 14/13 A2999 RMK A01 T01390131  RH  095%=      5-min Rain = 0
KCR2 111338Z 10004KT 14/13 A2999 RMK A01 T01390131  RH  095%=      5-min Rain = 0
KCR2 111339Z 10004KT 14/13 A2999 RMK A01 T01390132  RH  095%=      5-min Rain = 0
KCR2 111340Z 10003KT 14/13 A2999 RMK A01 T01390132  RH  095%=      5-min Rain = 0
KCR2 111341Z 11003KT 14/13 A2999 RMK A01 T01390131  RH  095%=      5-min Rain = 0
KCR2 111342Z 11004KT 14/13 A2999 RMK A01 T01390131  RH  095%=      5-min Rain = 0
KCR2 111343Z 11004KT 14/13 A2999 RMK A01 T01390130  RH  095%=      5-min Rain = 0
KCR2 111344Z 09004KT 14/13 A2999 RMK A01 T01390130  RH  094%=      5-min Rain = 0
KCR2 111345Z 09005KT 14/13 A2999 RMK A01 T01390130  RH  094%=      5-min Rain = 0
KCR2 111346Z 09005KT 14/13 A2999 RMK A01 T01390130  RH  095%=      5-min Rain = 0
KCR2 111347Z 09005KT 14/13 A2999 RMK A01 T01390130  RH  095%=      5-min Rain = 0
KCR2 111348Z 08005KT 14/13 A2999 RMK A01 T01390130  RH  095%=      5-min Rain = 0
KCR2 111349Z 07004KT 14/13 A2999 RMK A01 T01390130  RH  095%=      5-min Rain = 0
KCR2 111350Z 06004KT 14/13 A30 RMK A01 T01390130  RH  095%=      5-min Rain = 0
KCR2 111351Z 05004KT 14/13 A30 RMK A01 T01390130  RH  095%=      5-min Rain = 0
KCR2 111352Z 05004KT 14/13 A30 RMK A01 T01390130  RH  095%=      5-min Rain = 0
KCR2 111353Z 04007KT 14/13 A3001 RMK A01 T01390131  RH  095%=      5-min Rain = 0
KCR2 111354Z 03013KT 14/13 A3002 RMK A01 T01390131  RH  095%=      5-min Rain = 0
KCR2 111355Z 03013KT 14/13 A3002 RMK A01 T01390131  RH  095%=      5-min Rain = 0
KCR2 111356Z 03008KT 14/13 A3002 RMK A01 T01390130  RH  094%=      5-min Rain = 0
KCR2 111357Z 03005KT 14/13 A3002 RMK A01 T01390131  RH  095%=      5-min Rain = 0
KCR2 111358Z 02007KT 14/13 A3002 RMK A01 T01390131  RH  095%=      5-min Rain = 0
KCR2 111359Z 03008KT 14/13 A3002 RMK A01 T01400132  RH  095%=      5-min Rain = 0
KCR2 111400Z 03009KT 14/13 A3002 RMK A01 T01420134  RH  095%=      5-min Rain = 0
KCR2 111401Z 03011KT 14/14 A3002 RMK A01 T01440135  RH  094%=      5-min Rain = 0
KCR2 111402Z 03010KT 15/14 A3002 RMK A01 T01460135  RH  093%=      5-min Rain = 0
KCR2 111403Z 02011KT 15/13 A3002 RMK A01 T01480134  RH  091%=      5-min Rain = 0
KCR2 111404Z 03009KT 15/13 A3002 RMK A01 T01510134  RH  089%=      5-min Rain = 0
KCR2 111405Z 03010KT 15/13 A3002 RMK A01 T01530133  RH  088%=      5-min Rain = 0
KCR2 111406Z 03010KT 15/13 A3002 RMK A01 T01540133  RH  088%=      5-min Rain = 0
KCR2 111407Z 03011KT 15/13 A3003 RMK A01 T01540133  RH  087%=      5-min Rain = 0
KCR2 111408Z 02013G18KT 16/13 A3003 RMK A01 T01550133  RH  087%=      5-min Rain = 0
KCR2 111409Z 03016G22KT 16/13 A3003 RMK A01 T01570132  RH  085%=      5-min Rain = 0
KCR2 111410Z 03015G24KT 16/13 A3003 RMK A01 T01590131  RH  084%=      5-min Rain = 0
KCR2 111411Z 03020KT 16/13 A3003 RMK A01 T01600128  RH  081%=      5-min Rain = 0
KCR2 111412Z 03019G25KT 16/13 A3003 RMK A01 T01610126  RH  080%=      5-min Rain = 0
KCR2 111413Z 03018KT 16/13 A3003 RMK A01 T01610126  RH  080%=      5-min Rain = 0
KCR2 111414Z 03015KT 16/13 A3003 RMK A01 T01600126  RH  080%=      5-min Rain = 0
KCR2 111415Z 04017G25KT 16/13 A3003 RMK A01 T01600126  RH  081%=      5-min Rain = 0
KCR2 111416Z 04019KT 16/13 A3003 RMK A01 T01580125  RH  081%=      5-min Rain = 0
KCR2 111417Z 03020G27KT 16/12 A3003 RMK A01 T01550124  RH  081%=      5-min Rain = 0
KCR2 111418Z 03023KT 15/12 A3003 RMK A01 T01510116  RH  079%=      5-min Rain = 0
KCR2 111419Z 03019G25KT 15/11 A3004 RMK A01 T01470111  RH  079%=      5-min Rain = 0
KCR2 111420Z 02021G26KT 14/11 A3004 RMK A01 T01440109  RH  080%=      5-min Rain = 0
KCR2 111421Z 03018KT 14/10 A3004 RMK A01 T01390104  RH  079%=      5-min Rain = 0
KCR2 111422Z 03014KT 14/10 A3005 RMK A01 T01350102  RH  080%=      5-min Rain = 0
KCR2 111423Z 03019G24KT 13/10 A3005 RMK A01 T01320099  RH  080%=      5-min Rain = 0
KCR2 111424Z 03019KT 13/09 A3005 RMK A01 T01280090  RH  078%=      5-min Rain = 0
KCR2 111425Z 03020G25KT 12/08 A3005 RMK A01 T01240083  RH  076%=      5-min Rain = 0
KCR2 111426Z 03018G23KT 12/08 A3005 RMK A01 T01200081  RH  077%=      5-min Rain = 0
KCR2 111427Z 03016G21KT 12/08 A3005 RMK A01 T01180082  RH  078%=      5-min Rain = 0
KCR2 111428Z 03017G22KT 12/08 A3005 RMK A01 T01170082  RH  079%=      5-min Rain = 0
KCR2 111429Z 03016G21KT 12/08 A3006 RMK A01 T01160082  RH  080%=      5-min Rain = 0
KCR2 111430Z 04016G23KT 12/08 A3006 RMK A01 T01150080  RH  079%=      5-min Rain = 0
KCR2 111431Z 04017G24KT 12/08 A3006 RMK A01 T01150079  RH  079%=      5-min Rain = 0
KCR2 111432Z 04018KT 12/08 A3006 RMK A01 T01150078  RH  078%=      5-min Rain = 0
KCR2 111433Z 04016KT 12/08 A3006 RMK A01 T01150077  RH  078%=      5-min Rain = 0
KCR2 111434Z 04016KT 11/08 A3007 RMK A01 T01140077  RH  078%=      5-min Rain = 0
KCR2 111435Z 04014KT 11/08 A3007 RMK A01 T01140078  RH  078%=      5-min Rain = 0
KCR2 111436Z 03018KT 11/08 A3007 RMK A01 T01140077  RH  078%=      5-min Rain = 0
KCR2 111437Z 04014G22KT 11/08 A3007 RMK A01 T01130077  RH  078%=      5-min Rain = 0
KCR2 111438Z 03017G24KT 11/08 A3007 RMK A01 T01130075  RH  078%=      5-min Rain = 0
KCR2 111439Z 03014G20KT 11/08 A3008 RMK A01 T01120076  RH  078%=      5-min Rain = 0
KCR2 111440Z 03015KT 11/08 A3009 RMK A01 T01120075  RH  078%=      5-min Rain = 0
KCR2 111441Z 03013G18KT 11/08 A3009 RMK A01 T01120075  RH  078%=      5-min Rain = 0
KCR2 111442Z 02012KT 11/08 A3009 RMK A01 T01110075  RH  078%=      5-min Rain = 0
KCR2 111443Z 02010KT 11/08 A3009 RMK A01 T01110075  RH  078%=      5-min Rain = 0
KCR2 111444Z 03011KT 11/08 A301 RMK A01 T01110077  RH  079%=      5-min Rain = 0
KCR2 111445Z 03010KT 11/08 A301 RMK A01 T01110075  RH  078%=      5-min Rain = 0
KCR2 111446Z 03010KT 11/08 A301 RMK A01 T01110075  RH  079%=      5-min Rain = 0
KCR2 111447Z 04010KT 11/07 A301 RMK A01 T01110074  RH  078%=      5-min Rain = 0
KCR2 111448Z 04014KT 11/07 A301 RMK A01 T01110072  RH  077%=      5-min Rain = 0
KCR2 111449Z 04015KT 11/07 A301 RMK A01 T01110069  RH  075%=      5-min Rain = 0
KCR2 111450Z 04012KT 11/07 A301 RMK A01 T01110070  RH  076%=      5-min Rain = 0
KCR2 111451Z 03013G20KT 11/07 A3011 RMK A01 T01110069  RH  075%=      5-min Rain = 0
KCR2 111452Z 03014G19KT 11/07 A3011 RMK A01 T01110069  RH  075%=      5-min Rain = 0
KCR2 111453Z 04012KT 11/07 A3011 RMK A01 T01110069  RH  075%=      5-min Rain = 0
KCR2 111454Z 04011KT 11/07 A3011 RMK A01 T01120070  RH  076%=      5-min Rain = 0
KCR2 111455Z 04010KT 11/07 A3011 RMK A01 T01120071  RH  076%=      5-min Rain = 0
KCR2 111456Z 04011KT 11/07 A3011 RMK A01 T01130073  RH  076%=      5-min Rain = 0
KCR2 111457Z 03012KT 11/07 A3012 RMK A01 T01130073  RH  076%=      5-min Rain = 0
KCR2 111458Z 03016G23KT 11/07 A3012 RMK A01 T01140071  RH  075%=      5-min Rain = 0
KCR2 111459Z 04018G24KT 11/07 A3012 RMK A01 T01130069  RH  074%=      5-min Rain = 0
KCR2 111500Z 04016G21KT 11/07 A3012 RMK A01 T01130071  RH  075%=      5-min Rain = 0
KCR2 111501Z 03018G23KT 11/07 A3013 RMK A01 T01130070  RH  075%=      5-min Rain = 0
KCR2 111502Z 04018KT 11/07 A3013 RMK A01 T01120069  RH  075%=      5-min Rain = 0
KCR2 111503Z 03020KT 11/07 A3013 RMK A01 T01120069  RH  075%=      5-min Rain = 0.01
KCR2 111504Z 03018KT 11/07 A3013 RMK A01 T01110068  RH  075%=      5-min Rain = 0
KCR2 111505Z 04017G22KT 11/07 A3013 RMK A01 T01110070  RH  075%=      5-min Rain = 0
KCR2 111506Z 04021G27KT 11/07 A3013 RMK A01 T01110069  RH  075%=      5-min Rain = 0
KCR2 111507Z 04018G23KT 11/07 A3013 RMK A01 T01110069  RH  075%=      5-min Rain = 0
KCR2 111508Z 04015KT 11/07 A3014 RMK A01 T01110071  RH  076%=      5-min Rain = 0
KCR2 111509Z 04016KT 11/07 A3014 RMK A01 T01110071  RH  076%=      5-min Rain = 0
KCR2 111510Z 04015KT 11/07 A3014 RMK A01 T01110071  RH  076%=      5-min Rain = 0
KCR2 111511Z 04014KT 11/07 A3014 RMK A01 T01110072  RH  077%=      5-min Rain = 0
KCR2 111512Z 04014KT 11/07 A3014 RMK A01 T01110073  RH  077%=      5-min Rain = 0
KCR2 111513Z 04015KT 11/07 A3014 RMK A01 T01120073  RH  077%=      5-min Rain = 0
KCR2 111514Z 04017G23KT 11/07 A3014 RMK A01 T01120072  RH  076%=      5-min Rain = 0
KCR2 111515Z 03018G25KT 11/07 A3014 RMK A01 T01110071  RH  076%=      5-min Rain = 0
KCR2 111516Z 03014KT 11/07 A3014 RMK A01 T01110072  RH  077%=      5-min Rain = 0
KCR2 111517Z 04012KT 11/07 A3014 RMK A01 T01100073  RH  078%=      5-min Rain = 0
KCR2 111518Z 04014KT 11/07 A3014 RMK A01 T01110074  RH  078%=      5-min Rain = 0
KCR2 111519Z 05018G23KT 11/07 A3014 RMK A01 T01110073  RH  077%=      5-min Rain = 0
KCR2 111520Z 04021G27KT 11/07 A3015 RMK A01 T01110071  RH  077%=      5-min Rain = 0
KCR2 111521Z 04024KT 11/07 A3015 RMK A01 T01100070  RH  076%=      5-min Rain = 0
KCR2 111522Z 04019G25KT 11/07 A3015 RMK A01 T01090070  RH  077%=      5-min Rain = 0
KCR2 111523Z 04019G24KT 11/07 A3015 RMK A01 T01090071  RH  077%=      5-min Rain = 0
KCR2 111524Z 04021KT 11/07 A3015 RMK A01 T01090070  RH  077%=      5-min Rain = 0
KCR2 111525Z 04018KT 11/07 A3015 RMK A01 T01090071  RH  077%=      5-min Rain = 0
KCR2 111526Z 04018G25KT 11/07 A3015 RMK A01 T01090071  RH  077%=      5-min Rain = 0
KCR2 111527Z 04019KT 11/07 A3016 RMK A01 T01090071  RH  077%=      5-min Rain = 0
KCR2 111528Z 03016G22KT 11/07 A3016 RMK A01 T01100071  RH  077%=      5-min Rain = 0
KCR2 111529Z 03019KT 11/07 A3016 RMK A01 T01100071  RH  077%=      5-min Rain = 0
KCR2 111530Z 04019KT 11/07 A3016 RMK A01 T01100071  RH  077%=      5-min Rain = 0
KCR2 111531Z 03016KT 11/07 A3017 RMK A01 T01100071  RH  077%=      5-min Rain = 0
KCR2 111532Z 04016G22KT 11/07 A3017 RMK A01 T01110072  RH  077%=      5-min Rain = 0
KCR2 111533Z 03019G24KT 11/07 A3017 RMK A01 T01100071  RH  077%=      5-min Rain = 0
KCR2 111534Z 04020G25KT 11/07 A3017 RMK A01 T01100070  RH  076%=      5-min Rain = 0
KCR2 111535Z 04020KT 11/07 A3017 RMK A01 T01100070  RH  077%=      5-min Rain = 0
KCR2 111536Z 04020KT 11/07 A3018 RMK A01 T01100070  RH  077%=      5-min Rain = 0
KCR2 111537Z 04018G23KT 11/07 A3018 RMK A01 T01100070  RH  077%=      5-min Rain = 0
KCR2 111538Z 04013G19KT 11/07 A3018 RMK A01 T01100071  RH  077%=      5-min Rain = 0
KCR2 111539Z 04013KT 11/07 A3018 RMK A01 T01100073  RH  078%=      5-min Rain = 0
KCR2 111540Z 04021G29KT 11/07 A3018 RMK A01 T01110072  RH  077%=      5-min Rain = 0
KCR2 111541Z 04018G23KT 11/07 A3018 RMK A01 T01110070  RH  076%=      5-min Rain = 0
KCR2 111542Z 04019KT 11/07 A3018 RMK A01 T01110069  RH  076%=      5-min Rain = 0
KCR2 111543Z 04016KT 11/07 A3018 RMK A01 T01100069  RH  076%=      5-min Rain = 0
KCR2 111544Z 04015G20KT 11/07 A3018 RMK A01 T01110070  RH  076%=      5-min Rain = 0
KCR2 111545Z 04019KT 11/07 A3018 RMK A01 T01110070  RH  076%=      5-min Rain = 0
KCR2 111546Z 04018KT 11/07 A3019 RMK A01 T01110069  RH  075%=      5-min Rain = 0
KCR2 111547Z 04017KT 11/07 A3019 RMK A01 T01110069  RH  075%=      5-min Rain = 0
KCR2 111548Z 04016KT 11/07 A3019 RMK A01 T01110070  RH  076%=      5-min Rain = 0
KCR2 111549Z 04020G29KT 11/07 A3019 RMK A01 T01110068  RH  075%=      5-min Rain = 0
KCR2 111550Z 03023G28KT 11/07 A3019 RMK A01 T01100066  RH  074%=      5-min Rain = 0
KCR2 111551Z 04023G30KT 11/06 A3019 RMK A01 T01090063  RH  073%=      5-min Rain = 0
KCR2 111552Z 04022KT 11/06 A3019 RMK A01 T01070061  RH  073%=      5-min Rain = 0
KCR2 111553Z 05025G31KT 11/06 A3019 RMK A01 T01060060  RH  073%=      5-min Rain = 0
KCR2 111554Z 05023KT 11/06 A3019 RMK A01 T01050058  RH  073%=      5-min Rain = 0
KCR2 111555Z 05025KT 11/06 A3019 RMK A01 T01050059  RH  073%=      5-min Rain = 0
KCR2 111556Z 06022G28KT 11/06 A3019 RMK A01 T01050058  RH  073%=      5-min Rain = 0
KCR2 111557Z 05021G26KT 11/06 A3019 RMK A01 T01060059  RH  073%=      5-min Rain = 0
KCR2 111558Z 05020G27KT 11/06 A3019 RMK A01 T01070060  RH  073%=      5-min Rain = 0
KCR2 111559Z 05019G25KT 11/06 A3019 RMK A01 T01070060  RH  072%=      5-min Rain = 0
KCR2 111600Z 04017G23KT 11/06 A3019 RMK A01 T01070060  RH  073%=      5-min Rain = 0
KCR2 111601Z 04020KT 11/06 A3019 RMK A01 T01080057  RH  071%=      5-min Rain = 0
KCR2 111602Z 03021KT 11/05 A3019 RMK A01 T01060054  RH  070%=      5-min Rain = 0
KCR2 111603Z 03020G25KT 10/05 A302 RMK A01 T01040052  RH  070%=      5-min Rain = 0
KCR2 111604Z 03020G26KT 10/05 A302 RMK A01 T01030053  RH  071%=      5-min Rain = 0
KCR2 111605Z 04017KT 10/05 A302 RMK A01 T01030052  RH  071%=      5-min Rain = 0
KCR2 111606Z 04018G26KT 10/05 A302 RMK A01 T01030054  RH  071%=      5-min Rain = 0
KCR2 111607Z 04021G27KT 10/05 A302 RMK A01 T01030050  RH  070%=      5-min Rain = 0
KCR2 111608Z 04020G27KT 10/05 A302 RMK A01 T01020050  RH  070%=      5-min Rain = 0
KCR2 111609Z 03023KT 10/05 A302 RMK A01 T01020049  RH  070%=      5-min Rain = 0
KCR2 111610Z 04022KT 10/05 A3021 RMK A01 T01010048  RH  070%=      5-min Rain = 0
KCR2 111611Z 05023KT 10/05 A3021 RMK A01 T01000049  RH  070%=      5-min Rain = 0
KCR2 111612Z 05021KT 10/05 A3021 RMK A01 T01000049  RH  070%=      5-min Rain = 0
KCR2 111613Z 04020KT 10/05 A3021 RMK A01 T01000049  RH  071%=      5-min Rain = 0
KCR2 111614Z 04022G28KT 10/05 A3021 RMK A01 T01000048  RH  070%=      5-min Rain = 0
KCR2 111615Z 04022G29KT 10/05 A3021 RMK A01 T00990046  RH  070%=      5-min Rain = 0
KCR2 111616Z 04021G26KT 10/05 A3021 RMK A01 T00980045  RH  070%=      5-min Rain = 0
KCR2 111617Z 04021G29KT 10/05 A3021 RMK A01 T00980046  RH  070%=      5-min Rain = 0
KCR2 111618Z 04023G28KT 10/05 A3021 RMK A01 T00970045  RH  070%=      5-min Rain = 0
KCR2 111619Z 04023KT 10/05 A3021 RMK A01 T00970045  RH  070%=      5-min Rain = 0
KCR2 111620Z 04022KT 10/05 A3021 RMK A01 T00960045  RH  070%=      5-min Rain = 0
KCR2 111621Z 04020G25KT 10/05 A3021 RMK A01 T00960045  RH  070%=      5-min Rain = 0
KCR2 111622Z 03017KT 10/05 A3022 RMK A01 T00960045  RH  070%=      5-min Rain = 0
KCR2 111623Z 03022G30KT 10/04 A3021 RMK A01 T00960043  RH  070%=      5-min Rain = 0
KCR2 111624Z 04023G32KT 09/04 A3021 RMK A01 T00930038  RH  069%=      5-min Rain = 0
KCR2 111625Z 04023G28KT 09/04 A3022 RMK A01 T00900037  RH  070%=      5-min Rain = 0
KCR2 111626Z 04023G29KT 09/04 A3022 RMK A01 T00880036  RH  070%=      5-min Rain = 0
KCR2 111627Z 04023G28KT 09/04 A3022 RMK A01 T00880037  RH  070%=      5-min Rain = 0
KCR2 111628Z 03023G29KT 09/04 A3022 RMK A01 T00870036  RH  070%=      5-min Rain = 0
KCR2 111629Z 04022KT 09/04 A3022 RMK A01 T00870037  RH  071%=      5-min Rain = 0
KCR2 111630Z 03019KT 09/04 A3023 RMK A01 T00860037  RH  071%=      5-min Rain = 0
KCR2 111631Z 03022G29KT 09/04 A3023 RMK A01 T00860035  RH  070%=      5-min Rain = 0
KCR2 111632Z 04019G31KT 09/04 A3023 RMK A01 T00850036  RH  071%=      5-min Rain = 0
KCR2 111633Z 04028KT 09/03 A3023 RMK A01 T00850034  RH  070%=      5-min Rain = 0
KCR2 111634Z 03023KT 08/03 A3023 RMK A01 T00820032  RH  070%=      5-min Rain = 0
KCR2 111635Z 04027G33KT 08/03 A3023 RMK A01 T00810031  RH  071%=      5-min Rain = 0
KCR2 111636Z 04021G26KT 08/03 A3023 RMK A01 T00800031  RH  071%=      5-min Rain = 0
KCR2 111637Z 04026KT 08/03 A3023 RMK A01 T00790030  RH  071%=      5-min Rain = 0
KCR2 111638Z 04021G26KT 08/03 A3023 RMK A01 T00780029  RH  071%=      5-min Rain = 0
KCR2 111639Z 04019G24KT 08/03 A3024 RMK A01 T00780029  RH  072%=      5-min Rain = 0
KCR2 111640Z 04018KT 08/03 A3024 RMK A01 T00780030  RH  072%=      5-min Rain = 0
KCR2 111641Z 04018KT 08/03 A3024 RMK A01 T00790031  RH  072%=      5-min Rain = 0
KCR2 111642Z 04018G23KT 08/03 A3024 RMK A01 T00780030  RH  071%=      5-min Rain = 0
KCR2 111643Z 03019KT 08/03 A3024 RMK A01 T00780029  RH  071%=      5-min Rain = 0
KCR2 111644Z 04023G29KT 08/03 A3024 RMK A01 T00770029  RH  071%=      5-min Rain = 0
KCR2 111645Z 05026G32KT 08/03 A3024 RMK A01 T00760027  RH  071%=      5-min Rain = 0
KCR2 111646Z 04023G28KT 08/03 A3024 RMK A01 T00750027  RH  072%=      5-min Rain = 0
KCR2 111647Z 05023KT 08/03 A3024 RMK A01 T00750028  RH  072%=      5-min Rain = 0
KCR2 111648Z 03020G27KT 08/03 A3024 RMK A01 T00770029  RH  072%=      5-min Rain = 0
KCR2 111649Z 03023G29KT 08/03 A3024 RMK A01 T00770027  RH  071%=      5-min Rain = 0
KCR2 111650Z 03024G29KT 08/03 A3024 RMK A01 T00750025  RH  071%=      5-min Rain = 0
KCR2 111651Z 04023G28KT 07/03 A3024 RMK A01 T00740025  RH  071%=      5-min Rain = 0
KCR2 111652Z 03020KT 07/03 A3024 RMK A01 T00740026  RH  071%=      5-min Rain = 0
KCR2 111653Z 04022G27KT 08/03 A3024 RMK A01 T00750027  RH  071%=      5-min Rain = 0
KCR2 111654Z 03019KT 08/03 A3025 RMK A01 T00760028  RH  071%=      5-min Rain = 0
KCR2 111655Z 04022G29KT 08/03 A3025 RMK A01 T00770028  RH  071%=      5-min Rain = 0
KCR2 111656Z 04024G29KT 08/02 A3025 RMK A01 T00750024  RH  070%=      5-min Rain = 0
KCR2 111657Z 04021KT 07/02 A3025 RMK A01 T00720023  RH  071%=      5-min Rain = 0
KCR2 111658Z 04023G29KT 07/02 A3025 RMK A01 T00710024  RH  072%=      5-min Rain = 0
KCR2 111659Z 04025G31KT 07/02 A3025 RMK A01 T00710024  RH  072%=      5-min Rain = 0
KCR2 111700Z 04024KT 07/02 A3025 RMK A01 T00690022  RH  072%=      5-min Rain = 0
KCR2 111701Z 04021KT 07/02 A3025 RMK A01 T00680022  RH  073%=      5-min Rain = 0
KCR2 111702Z 04022G28KT 07/02 A3025 RMK A01 T00670023  RH  073%=      5-min Rain = 0
KCR2 111703Z 03023KT 07/02 A3025 RMK A01 T00670023  RH  073%=      5-min Rain = 0
KCR2 111704Z 03022KT 07/02 A3025 RMK A01 T00670023  RH  073%=      5-min Rain = 0
KCR2 111705Z 03019G25KT 07/02 A3026 RMK A01 T00660023  RH  074%=      5-min Rain = 0
KCR2 111706Z 03022G28KT 07/02 A3026 RMK A01 T00660023  RH  074%=      5-min Rain = 0
KCR2 111707Z 04022KT 07/02 A3026 RMK A01 T00660023  RH  074%=      5-min Rain = 0
KCR2 111708Z 04023G30KT 07/02 A3026 RMK A01 T00650022  RH  074%=      5-min Rain = 0
KCR2 111709Z 03025KT 07/02 A3026 RMK A01 T00650021  RH  074%=      5-min Rain = 0
KCR2 111710Z 03020G26KT 06/02 A3026 RMK A01 T00630020  RH  074%=      5-min Rain = 0
KCR2 111711Z 04022G29KT 06/02 A3026 RMK A01 T00630021  RH  074%=      5-min Rain = 0
KCR2 111712Z 04021KT 06/02 A3026 RMK A01 T00630021  RH  074%=      5-min Rain = 0
KCR2 111713Z 04018KT 06/02 A3026 RMK A01 T00620021  RH  075%=      5-min Rain = 0
KCR2 111714Z 03022G29KT 06/02 A3026 RMK A01 T00620021  RH  075%=      5-min Rain = 0
KCR2 111715Z 04020G26KT 06/02 A3026 RMK A01 T00610019  RH  074%=      5-min Rain = 0
KCR2 111716Z 03024G31KT 06/02 A3026 RMK A01 T00600020  RH  075%=      5-min Rain = 0
KCR2 111717Z 03027G34KT 06/02 A3027 RMK A01 T00590018  RH  075%=      5-min Rain = 0
KCR2 111718Z 04023G29KT 06/02 A3027 RMK A01 T00580018  RH  075%=      5-min Rain = 0
KCR2 111719Z 04019KT 06/02 A3027 RMK A01 T00580019  RH  076%=      5-min Rain = 0
KCR2 111720Z 04020KT 06/02 A3027 RMK A01 T00580019  RH  076%=      5-min Rain = 0
KCR2 111721Z 04017G22KT 06/02 A3028 RMK A01 T00580019  RH  076%=      5-min Rain = 0
KCR2 111722Z 04024G30KT 06/02 A3028 RMK A01 T00580018  RH  075%=      5-min Rain = 0
KCR2 111723Z 04021G29KT 06/02 A3028 RMK A01 T00580017  RH  075%=      5-min Rain = 0
KCR2 111724Z 04023G28KT 06/02 A3027 RMK A01 T00570017  RH  075%=      5-min Rain = 0
KCR2 111725Z 04022G27KT 06/02 A3028 RMK A01 T00560016  RH  075%=      5-min Rain = 0
KCR2 111726Z 04020KT 06/02 A3028 RMK A01 T00560016  RH  076%=      5-min Rain = 0
KCR2 111727Z 04019KT 06/02 A3028 RMK A01 T00570017  RH  076%=      5-min Rain = 0
KCR2 111728Z 03022G30KT 06/02 A3028 RMK A01 T00570016  RH  075%=      5-min Rain = 0
KCR2 111729Z 04024G31KT 06/01 A3028 RMK A01 T00560014  RH  074%=      5-min Rain = 0
KCR2 111730Z 05023G31KT 06/01 A3028 RMK A01 T00550014  RH  075%=      5-min Rain = 0
KCR2 111731Z 04026G31KT 06/01 A3028 RMK A01 T00550013  RH  075%=      5-min Rain = 0
KCR2 111732Z 04024KT 05/01 A3028 RMK A01 T00530012  RH  075%=      5-min Rain = 0
KCR2 111733Z 04022G28KT 05/01 A3028 RMK A01 T00530013  RH  075%=      5-min Rain = 0
KCR2 111734Z 05021G27KT 05/01 A3028 RMK A01 T00530012  RH  075%=      5-min Rain = 0
KCR2 111735Z 04022KT 05/01 A3028 RMK A01 T00530012  RH  075%=      5-min Rain = 0
KCR2 111736Z 04019KT 05/01 A3028 RMK A01 T00530012  RH  075%=      5-min Rain = 0
KCR2 111737Z 03017KT 05/01 A3029 RMK A01 T00540013  RH  075%=      5-min Rain = 0
KCR2 111738Z 03020G26KT 06/01 A3029 RMK A01 T00550014  RH  075%=      5-min Rain = 0
KCR2 111739Z 03014KT 06/01 A303 RMK A01 T00560014  RH  074%=      5-min Rain = 0
KCR2 111740Z 03017KT 06/02 A303 RMK A01 T00570015  RH  074%=      5-min Rain = 0
KCR2 111741Z 03020G25KT 06/01 A303 RMK A01 T00580014  RH  074%=      5-min Rain = 0
KCR2 111742Z 04022G28KT 06/01 A303 RMK A01 T00570013  RH  073%=      5-min Rain = 0
KCR2 111743Z 03018G25KT 06/01 A303 RMK A01 T00550012  RH  074%=      5-min Rain = 0
KCR2 111744Z 03020G25KT 06/01 A303 RMK A01 T00560014  RH  074%=      5-min Rain = 0
KCR2 111745Z 04021G26KT 06/01 A303 RMK A01 T00560013  RH  074%=      5-min Rain = 0
KCR2 111746Z 04022G27KT 06/01 A303 RMK A01 T00560012  RH  073%=      5-min Rain = 0
KCR2 111747Z 04018G23KT 06/01 A303 RMK A01 T00560011  RH  073%=      5-min Rain = 0
KCR2 111748Z 03016G21KT 06/01 A303 RMK A01 T00560013  RH  074%=      5-min Rain = 0
KCR2 111749Z 03019G24KT 06/01 A3031 RMK A01 T00580013  RH  073%=      5-min Rain = 0
KCR2 111750Z 03020G27KT 06/01 A3031 RMK A01 T00560010  RH  072%=      5-min Rain = 0
KCR2 111751Z 02022G27KT 06/01 A3031 RMK A01 T00550010  RH  073%=      5-min Rain = 0
KCR2 111752Z 03024KT 06/01 A3031 RMK A01 T00550009  RH  073%=      5-min Rain = 0
KCR2 111753Z 03024G31KT 05/01 A3031 RMK A01 T00540009  RH  073%=      5-min Rain = 0
KCR2 111754Z 02023KT 05/01 A3031 RMK A01 T00540009  RH  073%=      5-min Rain = 0
KCR2 111755Z 03021KT 05/01 A3031 RMK A01 T00540010  RH  073%=      5-min Rain = 0
KCR2 111756Z 03017G22KT 06/01 A3031 RMK A01 T00550011  RH  073%=      5-min Rain = 0
KCR2 111757Z 03023G32KT 06/01 A3031 RMK A01 T00560011  RH  073%=      5-min Rain = 0
KCR2 111758Z 04022G30KT 06/01 A3031 RMK A01 T00550010  RH  073%=      5-min Rain = 0
KCR2 111759Z 04023G31KT 05/01 A3031 RMK A01 T00540009  RH  073%=      5-min Rain = 0
KCR2 111800Z 04020KT 05/01 A3031 RMK A01 T00530009  RH  073%=      5-min Rain = 0
KCR2 111801Z 03022KT 05/01 A3031 RMK A01 T00530009  RH  073%=      5-min Rain = 0
KCR2 111802Z 03019G24KT 05/01 A3031 RMK A01 T00530009  RH  074%=      5-min Rain = 0
KCR2 111803Z 03025KT 05/01 A3031 RMK A01 T00530009  RH  074%=      5-min Rain = 0
KCR2 111804Z 03025G31KT 05/01 A3031 RMK A01 T00510008  RH  073%=      5-min Rain = 0
KCR2 111805Z 03022G27KT 05/01 A3031 RMK A01 T00500007  RH  073%=      5-min Rain = 0
KCR2 111806Z 03022G27KT 05/01 A3032 RMK A01 T00500007  RH  074%=      5-min Rain = 0
KCR2 111807Z 03021G26KT 05/01 A3032 RMK A01 T00490006  RH  074%=      5-min Rain = 0
KCR2 111808Z 03021KT 05/01 A3032 RMK A01 T00490006  RH  074%=      5-min Rain = 0
KCR2 111809Z 03019G26KT 05/01 A3032 RMK A01 T00480006  RH  074%=      5-min Rain = 0
KCR2 111810Z 03020G26KT 05/01 A3032 RMK A01 T00480006  RH  074%=      5-min Rain = 0
KCR2 111811Z 03018KT 05/01 A3032 RMK A01 T00480006  RH  074%=      5-min Rain = 0
KCR2 111812Z 04018KT 05/01 A3033 RMK A01 T00490006  RH  074%=      5-min Rain = 0
KCR2 111813Z 03018KT 05/01 A3032 RMK A01 T00480006  RH  074%=      5-min Rain = 0
KCR2 111814Z 04019G26KT 05/01 A3032 RMK A01 T00480006  RH  074%=      5-min Rain = 0
KCR2 111815Z 03020G28KT 05/01 A3033 RMK A01 T00490006  RH  074%=      5-min Rain = 0
KCR2 111816Z 03021G26KT 05/01 A3033 RMK A01 T00490006  RH  074%=      5-min Rain = 0
KCR2 111817Z 03022G28KT 05/01 A3033 RMK A01 T00480005  RH  074%=      5-min Rain = 0
KCR2 111818Z 03021G27KT 05/00 A3033 RMK A01 T00470004  RH  074%=      5-min Rain = 0
KCR2 111819Z 03023G28KT 05/01 A3033 RMK A01 T00470005  RH  074%=      5-min Rain = 0
KCR2 111820Z 03023KT 05/00 A3033 RMK A01 T00470004  RH  074%=      5-min Rain = 0
KCR2 111821Z 03022KT 05/00 A3033 RMK A01 T00460004  RH  074%=      5-min Rain = 0
KCR2 111822Z 03021G27KT 05/00 A3033 RMK A01 T00460004  RH  074%=      5-min Rain = 0
KCR2 111823Z 03022G28KT 05/00 A3033 RMK A01 T00460004  RH  074%=      5-min Rain = 0
KCR2 111824Z 02022KT 05/01 A3033 RMK A01 T00460005  RH  074%=      5-min Rain = 0
KCR2 111825Z 03024G31KT 05/00 A3033 RMK A01 T00450003  RH  074%=      5-min Rain = 0
KCR2 111826Z 03021KT 04/00 A3034 RMK A01 T00440003  RH  074%=      5-min Rain = 0
KCR2 111827Z 02019G27KT 04/00 A3034 RMK A01 T00440004  RH  075%=      5-min Rain = 0
KCR2 111828Z 03021G27KT 04/00 A3034 RMK A01 T00440004  RH  075%=      5-min Rain = 0
KCR2 111829Z 02023G29KT 04/00 A3034 RMK A01 T00440004  RH  075%=      5-min Rain = 0
KCR2 111830Z 03022G27KT 05/00 A3034 RMK A01 T00450004  RH  075%=      5-min Rain = 0
KCR2 111831Z 03022G27KT 04/00 A3034 RMK A01 T00440004  RH  075%=      5-min Rain = 0
KCR2 111832Z 04020G28KT 05/01 A3034 RMK A01 T00450005  RH  075%=      5-min Rain = 0
KCR2 111833Z 04023KT 05/01 A3034 RMK A01 T00450005  RH  075%=      5-min Rain = 0
KCR2 111834Z 04021G26KT 05/00 A3034 RMK A01 T00450004  RH  075%=      5-min Rain = 0
KCR2 111835Z 03021G26KT 04/00 A3034 RMK A01 T00440003  RH  075%=      5-min Rain = 0
KCR2 111836Z 03022G29KT 04/00 A3034 RMK A01 T00440003  RH  075%=      5-min Rain = 0
KCR2 111837Z 03019G27KT 04/00 A3034 RMK A01 T00440003  RH  075%=      5-min Rain = 0
KCR2 111838Z 03024G29KT 04/00 A3034 RMK A01 T00440003  RH  075%=      5-min Rain = 0
KCR2 111839Z 03025G30KT 04/00 A3034 RMK A01 T00420001  RH  074%=      5-min Rain = 0
KCR2 111840Z 03021G28KT 04/00 A3034 RMK A01 T00420001  RH  075%=      5-min Rain = 0
KCR2 111841Z 04019G25KT 04/00 A3034 RMK A01 T00420002  RH  075%=      5-min Rain = 0
KCR2 111842Z 04019G25KT 04/00 A3034 RMK A01 T00430001  RH  075%=      5-min Rain = 0
KCR2 111843Z 04020KT 04/00 A3034 RMK A01 T00430001  RH  074%=      5-min Rain = 0
KCR2 111844Z 04019G24KT 04/00 A3035 RMK A01 T00430001  RH  074%=      5-min Rain = 0
KCR2 111845Z 04019KT 04/00 A3035 RMK A01 T004200-0  RH  074%=      5-min Rain = 0
KCR2 111846Z 02017KT 04/M00 A3035 RMK A01 T00421001  RH  074%=      5-min Rain = 0
KCR2 111847Z 02018G27KT 04/M00 A3035 RMK A01 T00431001  RH  073%=      5-min Rain = 0
KCR2 111848Z 03017G23KT 04/M00 A3035 RMK A01 T00441001  RH  073%=      5-min Rain = 0
KCR2 111849Z 03021KT 04/00 A3035 RMK A01 T004400-0  RH  073%=      5-min Rain = 0
KCR2 111850Z 04021G26KT 04/M00 A3035 RMK A01 T00431002  RH  072%=      5-min Rain = 0
KCR2 111851Z 04024G30KT 04/M00 A3035 RMK A01 T00421003  RH  073%=      5-min Rain = 0
KCR2 111852Z 03026KT 04/M00 A3035 RMK A01 T00391004  RH  073%=      5-min Rain = 0
KCR2 111853Z 03022G27KT 04/M00 A3035 RMK A01 T00381004  RH  074%=      5-min Rain = 0
KCR2 111854Z 03024G29KT 04/M01 A3035 RMK A01 T00371005  RH  074%=      5-min Rain = 0
KCR2 111855Z 03022G28KT 04/M01 A3035 RMK A01 T00351006  RH  074%=      5-min Rain = 0
KCR2 111856Z 03025KT 04/M01 A3034 RMK A01 T00351005  RH  075%=      5-min Rain = 0
KCR2 111857Z 03020KT 04/M01 A3034 RMK A01 T00351005  RH  075%=      5-min Rain = 0
KCR2 111858Z 03024KT 04/M01 A3034 RMK A01 T00351005  RH  075%=      5-min Rain = 0
KCR2 111859Z 03018KT 04/M01 A3035 RMK A01 T00351005  RH  075%=      5-min Rain = 0
KCR2 111900Z 03018KT 04/M01 A3035 RMK A01 T00361005  RH  075%=      5-min Rain = 0
KCR2 111901Z 04016G22KT 04/M01 A3035 RMK A01 T00371005  RH  074%=      5-min Rain = 0
KCR2 111902Z 03019KT 04/M00 A3035 RMK A01 T00381004  RH  074%=      5-min Rain = 0
KCR2 111903Z 02019G28KT 04/M00 A3035 RMK A01 T00391004  RH  074%=      5-min Rain = 0
KCR2 111904Z 03024G29KT 04/M01 A3035 RMK A01 T00391005  RH  073%=      5-min Rain = 0
KCR2 111905Z 02018G24KT 04/M01 A3035 RMK A01 T00371006  RH  074%=      5-min Rain = 0
KCR2 111906Z 02020KT 04/M01 A3036 RMK A01 T00371005  RH  074%=      5-min Rain = 0
KCR2 111907Z 02017KT 04/M01 A3036 RMK A01 T00371005  RH  074%=      5-min Rain = 0
KCR2 111908Z 02020KT 04/M01 A3036 RMK A01 T00371006  RH  074%=      5-min Rain = 0
KCR2 111909Z 03018KT 04/M01 A3036 RMK A01 T00361007  RH  073%=      5-min Rain = 0
KCR2 111910Z 03019G24KT 04/M01 A3036 RMK A01 T00361006  RH  074%=      5-min Rain = 0
KCR2 111911Z 04020G26KT 04/M01 A3036 RMK A01 T00361007  RH  073%=      5-min Rain = 0
KCR2 111912Z 03022KT 03/M01 A3036 RMK A01 T00341009  RH  073%=      5-min Rain = 0
KCR2 111913Z 03019KT 03/M01 A3037 RMK A01 T00321010  RH  074%=      5-min Rain = 0
KCR2 111914Z 02019G24KT 03/M01 A3037 RMK A01 T00321010  RH  074%=      5-min Rain = 0
KCR2 111915Z 02023KT 03/M01 A3037 RMK A01 T00311011  RH  074%=      5-min Rain = 0
KCR2 111916Z 02023KT 03/M01 A3037 RMK A01 T00301012  RH  074%=      5-min Rain = 0
KCR2 111917Z 02018KT 03/M01 A3037 RMK A01 T00291013  RH  074%=      5-min Rain = 0
KCR2 111918Z 02020KT 03/M01 A3038 RMK A01 T00291012  RH  074%=      5-min Rain = 0
KCR2 111919Z 02019G24KT 03/M01 A3038 RMK A01 T00291012  RH  075%=      5-min Rain = 0
KCR2 111920Z 03016G22KT 03/M01 A3038 RMK A01 T00291011  RH  075%=      5-min Rain = 0
KCR2 111921Z 03015KT 03/M01 A3038 RMK A01 T00301010  RH  075%=      5-min Rain = 0
KCR2 111922Z 03015KT 03/M01 A3038 RMK A01 T00311009  RH  075%=      5-min Rain = 0
KCR2 111923Z 04020KT 03/M01 A3038 RMK A01 T00311010  RH  074%=      5-min Rain = 0
KCR2 111924Z 04021KT 03/M01 A3038 RMK A01 T00301011  RH  074%=      5-min Rain = 0
KCR2 111925Z 04019KT 03/M01 A3038 RMK A01 T00291012  RH  074%=      5-min Rain = 0
KCR2 111926Z 04020KT 03/M01 A3038 RMK A01 T00281012  RH  075%=      5-min Rain = 0
KCR2 111927Z 04018G24KT 03/M01 A3038 RMK A01 T00281012  RH  075%=      5-min Rain = 0
KCR2 111928Z 04018KT 03/M01 A3037 RMK A01 T00281012  RH  075%=      5-min Rain = 0
KCR2 111929Z 04018KT 03/M01 A3038 RMK A01 T00281012  RH  075%=      5-min Rain = 0
KCR2 111930Z 05017KT 03/M01 A3037 RMK A01 T00281012  RH  075%=      5-min Rain = 0
KCR2 111931Z 03014KT 03/M01 A3038 RMK A01 T00291012  RH  074%=      5-min Rain = 0
KCR2 111932Z 02016KT 03/M01 A3038 RMK A01 T00301011  RH  074%=      5-min Rain = 0
KCR2 111933Z 02016KT 03/M01 A3038 RMK A01 T00311012  RH  074%=      5-min Rain = 0
KCR2 111934Z 02014KT 03/M01 A3038 RMK A01 T00301012  RH  074%=      5-min Rain = 0
KCR2 111935Z 01019G27KT 03/M01 A3038 RMK A01 T00301012  RH  074%=      5-min Rain = 0
KCR2 111936Z 02019G25KT 03/M02 A3038 RMK A01 T00281016  RH  073%=      5-min Rain = 0
KCR2 111937Z 02019KT 03/M02 A3038 RMK A01 T00261017  RH  073%=      5-min Rain = 0
KCR2 111938Z 01021KT 03/M02 A3039 RMK A01 T00251017  RH  074%=      5-min Rain = 0
KCR2 111939Z 01019KT 02/M02 A3038 RMK A01 T00241018  RH  074%=      5-min Rain = 0
KCR2 111940Z 01019KT 02/M02 A3038 RMK A01 T00231018  RH  074%=      5-min Rain = 0
KCR2 111941Z 02019KT 02/M02 A3038 RMK A01 T00231017  RH  075%=      5-min Rain = 0
KCR2 111942Z 02018G23KT 02/M02 A3038 RMK A01 T00241017  RH  075%=      5-min Rain = 0
KCR2 111943Z 01019KT 02/M02 A3038 RMK A01 T00241017  RH  074%=      5-min Rain = 0
KCR2 111944Z 02023KT 02/M02 A3038 RMK A01 T00231019  RH  074%=      5-min Rain = 0
KCR2 111945Z 02019KT 02/M02 A3038 RMK A01 T00221020  RH  074%=      5-min Rain = 0
KCR2 111946Z 02023G28KT 02/M02 A3038 RMK A01 T00221020  RH  074%=      5-min Rain = 0
KCR2 111947Z 03021G26KT 02/M02 A3038 RMK A01 T00221021  RH  073%=      5-min Rain = 0
KCR2 111948Z 03020G27KT 02/M02 A3038 RMK A01 T00211021  RH  073%=      5-min Rain = 0
KCR2 111949Z 02023KT 02/M02 A3038 RMK A01 T00211022  RH  073%=      5-min Rain = 0
KCR2 111950Z 02020KT 02/M02 A3038 RMK A01 T00211022  RH  073%=      5-min Rain = 0
KCR2 111951Z 02016KT 02/M02 A3038 RMK A01 T00221021  RH  073%=      5-min Rain = 0
KCR2 111952Z 02017G22KT 02/M02 A3038 RMK A01 T00231020  RH  073%=      5-min Rain = 0
KCR2 111953Z 03022KT 02/M02 A3038 RMK A01 T00231021  RH  073%=      5-min Rain = 0
KCR2 111954Z 02020G26KT 02/M02 A3038 RMK A01 T00221021  RH  073%=      5-min Rain = 0
KCR2 111955Z 02021KT 02/M02 A3038 RMK A01 T00221021  RH  073%=      5-min Rain = 0
KCR2 111956Z 02020G26KT 02/M02 A3039 RMK A01 T00211022  RH  073%=      5-min Rain = 0
KCR2 111957Z 02019KT 02/M02 A3039 RMK A01 T00211021  RH  073%=      5-min Rain = 0
KCR2 111958Z 03020G25KT 02/M02 A3039 RMK A01 T00211022  RH  073%=      5-min Rain = 0
KCR2 111959Z 03017KT 02/M02 A3039 RMK A01 T00211022  RH  073%=      5-min Rain = 0
KCR2 112000Z 03019KT 02/M02 A3038 RMK A01 T00211022  RH  073%=      5-min Rain = 0
KCR2 112001Z 03017KT 02/M02 A3039 RMK A01 T00211022  RH  073%=      5-min Rain = 0
KCR2 112002Z 02018KT 02/M02 A3039 RMK A01 T00211022  RH  073%=      5-min Rain = 0
KCR2 112003Z 01022G27KT 02/M02 A3039 RMK A01 T00211023  RH  072%=      5-min Rain = 0
KCR2 112004Z 01018G24KT 02/M02 A3039 RMK A01 T00211024  RH  072%=      5-min Rain = 0
KCR2 112005Z 02017KT 02/M02 A3039 RMK A01 T00211024  RH  072%=      5-min Rain = 0
KCR2 112006Z 03017G24KT 02/M02 A3039 RMK A01 T00211024  RH  072%=      5-min Rain = 0
KCR2 112007Z 02017KT 02/M02 A3039 RMK A01 T00211024  RH  072%=      5-min Rain = 0
KCR2 112008Z 02016KT 02/M02 A3039 RMK A01 T00221024  RH  072%=      5-min Rain = 0
KCR2 112009Z 03018KT 02/M02 A3039 RMK A01 T00231023  RH  072%=      5-min Rain = 0
KCR2 112010Z 04016KT 02/M03 A3039 RMK A01 T00231025  RH  071%=      5-min Rain = 0
KCR2 112011Z 04019KT 02/M03 A3039 RMK A01 T00221025  RH  071%=      5-min Rain = 0
KCR2 112012Z 03020G26KT 02/M03 A3039 RMK A01 T00221025  RH  071%=      5-min Rain = 0
KCR2 112013Z 02020G25KT 02/M03 A3039 RMK A01 T00221025  RH  071%=      5-min Rain = 0
KCR2 112014Z 03017G23KT 02/M03 A3039 RMK A01 T00221025  RH  071%=      5-min Rain = 0
KCR2 112015Z 02018G23KT 02/M02 A3039 RMK A01 T00221024  RH  071%=      5-min Rain = 0
KCR2 112016Z 03015G20KT 02/M03 A3039 RMK A01 T00221025  RH  071%=      5-min Rain = 0
KCR2 112017Z 03014KT 02/M02 A3039 RMK A01 T00231024  RH  071%=      5-min Rain = 0
KCR2 112018Z 04017KT 02/M02 A3039 RMK A01 T00231024  RH  071%=      5-min Rain = 0
KCR2 112019Z 04018G24KT 02/M03 A3039 RMK A01 T00231025  RH  071%=      5-min Rain = 0
KCR2 112020Z 04017KT 02/M03 A3039 RMK A01 T00211026  RH  071%=      5-min Rain = 0
KCR2 112021Z 04015KT 02/M03 A3039 RMK A01 T00211025  RH  071%=      5-min Rain = 0
KCR2 112022Z 04018KT 02/M03 A3039 RMK A01 T00211025  RH  071%=      5-min Rain = 0
KCR2 112023Z 03016KT 02/M03 A3039 RMK A01 T00201026  RH  071%=      5-min Rain = 0
KCR2 112024Z 04017KT 02/M03 A3039 RMK A01 T00201025  RH  072%=      5-min Rain = 0
KCR2 112025Z 04014KT 02/M03 A3039 RMK A01 T00201025  RH  072%=      5-min Rain = 0
KCR2 112026Z 03013G19KT 02/M02 A304 RMK A01 T00211024  RH  072%=      5-min Rain = 0
KCR2 112027Z 04014G19KT 02/M02 A304 RMK A01 T00221024  RH  072%=      5-min Rain = 0
KCR2 112028Z 04017KT 02/M02 A304 RMK A01 T00221024  RH  071%=      5-min Rain = 0
KCR2 112029Z 04016KT 02/M03 A304 RMK A01 T00211026  RH  071%=      5-min Rain = 0
KCR2 112030Z 04018KT 02/M03 A304 RMK A01 T00201026  RH  072%=      5-min Rain = 0
KCR2 112031Z 04016KT 02/M03 A304 RMK A01 T00201026  RH  072%=      5-min Rain = 0
KCR2 112032Z 04017KT 02/M03 A304 RMK A01 T00201025  RH  072%=      5-min Rain = 0
KCR2 112033Z 04013KT 02/M02 A304 RMK A01 T00201024  RH  072%=      5-min Rain = 0
KCR2 112034Z 04013G22KT 02/M02 A304 RMK A01 T00211023  RH  073%=      5-min Rain = 0
KCR2 112035Z 03018KT 02/M02 A304 RMK A01 T00221023  RH  072%=      5-min Rain = 0
KCR2 112036Z 03016KT 02/M03 A304 RMK A01 T00211025  RH  072%=      5-min Rain = 0
KCR2 112037Z 02014KT 02/M02 A304 RMK A01 T00201024  RH  072%=      5-min Rain = 0
KCR2 112038Z 02016KT 02/M02 A304 RMK A01 T00201024  RH  073%=      5-min Rain = 0
KCR2 112039Z 03013KT 02/M03 A3041 RMK A01 T00201025  RH  072%=      5-min Rain = 0
KCR2 112040Z 02010KT 02/M02 A3041 RMK A01 T00201024  RH  073%=      5-min Rain = 0
KCR2 112041Z 03014KT 02/M02 A3041 RMK A01 T00211023  RH  073%=      5-min Rain = 0
KCR2 112042Z 03012G17KT 02/M02 A3041 RMK A01 T00211024  RH  072%=      5-min Rain = 0
KCR2 112043Z 03014KT 02/M02 A3041 RMK A01 T00211023  RH  072%=      5-min Rain = 0
KCR2 112044Z 03013KT 02/M02 A3041 RMK A01 T00211024  RH  072%=      5-min Rain = 0
KCR2 112045Z 03012KT 02/M02 A3042 RMK A01 T00211024  RH  072%=      5-min Rain = 0
KCR2 112046Z 03015KT 02/M02 A3042 RMK A01 T00201024  RH  072%=      5-min Rain = 0
KCR2 112047Z 03015KT 02/M02 A3042 RMK A01 T00201024  RH  072%=      5-min Rain = 0
KCR2 112048Z 04015KT 02/M02 A3042 RMK A01 T00201024  RH  073%=      5-min Rain = 0
KCR2 112049Z 03017G22KT 02/M02 A3042 RMK A01 T00201024  RH  072%=      5-min Rain = 0
KCR2 112050Z 03018KT 02/M03 A3042 RMK A01 T00201025  RH  072%=      5-min Rain = 0
KCR2 112051Z 03013KT 02/M03 A3042 RMK A01 T00191025  RH  072%=      5-min Rain = 0
KCR2 112052Z 04015KT 02/M03 A3042 RMK A01 T00191025  RH  073%=      5-min Rain = 0
KCR2 112053Z 04018KT 02/M03 A3042 RMK A01 T00191026  RH  072%=      5-min Rain = 0
KCR2 112054Z 04015KT 02/M03 A3042 RMK A01 T00181026  RH  072%=      5-min Rain = 0
KCR2 112055Z 04016KT 02/M03 A3042 RMK A01 T00181026  RH  072%=      5-min Rain = 0
KCR2 112056Z 03017KT 02/M03 A3042 RMK A01 T00181027  RH  072%=      5-min Rain = 0
KCR2 112057Z 02016KT 02/M03 A3042 RMK A01 T00181027  RH  072%=      5-min Rain = 0
KCR2 112058Z 02016KT 02/M03 A3042 RMK A01 T00171028  RH  072%=      5-min Rain = 0
KCR2 112059Z 03014KT 02/M03 A3042 RMK A01 T00171027  RH  072%=      5-min Rain = 0
KCR2 112100Z 02016KT 02/M03 A3042 RMK A01 T00171028  RH  072%=      5-min Rain = 0
KCR2 112101Z 03014KT 02/M03 A3042 RMK A01 T00171028  RH  072%=      5-min Rain = 0
KCR2 112102Z 03013KT 02/M03 A3042 RMK A01 T00181027  RH  072%=      5-min Rain = 0
KCR2 112103Z 03015KT 02/M03 A3042 RMK A01 T00181028  RH  072%=      5-min Rain = 0
KCR2 112104Z 02015KT 02/M03 A3042 RMK A01 T00181028  RH  071%=      5-min Rain = 0
KCR2 112105Z 03015KT 02/M03 A3042 RMK A01 T00171029  RH  071%=      5-min Rain = 0
KCR2 112106Z 03011G16KT 02/M03 A3042 RMK A01 T00171029  RH  071%=      5-min Rain = 0
KCR2 112107Z 03014G19KT 02/M03 A3042 RMK A01 T00181029  RH  071%=      5-min Rain = 0
KCR2 112108Z 04014KT 02/M03 A3042 RMK A01 T00171030  RH  071%=      5-min Rain = 0
KCR2 112109Z 03013KT 02/M03 A3042 RMK A01 T00171031  RH  071%=      5-min Rain = 0
KCR2 112110Z 03013KT 02/M03 A3042 RMK A01 T00171031  RH  071%=      5-min Rain = 0
KCR2 112111Z 03016KT 02/M03 A3042 RMK A01 T00161032  RH  070%=      5-min Rain = 0
KCR2 112112Z 03012KT 02/M03 A3042 RMK A01 T00161032  RH  070%=      5-min Rain = 0
KCR2 112113Z 03012KT 02/M03 A3042 RMK A01 T00161031  RH  071%=      5-min Rain = 0
KCR2 112114Z 03014KT 02/M03 A3042 RMK A01 T00171031  RH  071%=      5-min Rain = 0
KCR2 112115Z 03017KT 02/M03 A3042 RMK A01 T00171031  RH  070%=      5-min Rain = 0
KCR2 112116Z 04016G22KT 02/M03 A3042 RMK A01 T00171032  RH  070%=      5-min Rain = 0
KCR2 112117Z 04019G24KT 02/M03 A3042 RMK A01 T00171033  RH  070%=      5-min Rain = 0
KCR2 112118Z 04020KT 02/M03 A3042 RMK A01 T00161034  RH  069%=      5-min Rain = 0
KCR2 112119Z 04020KT 02/M04 A3042 RMK A01 T00161035  RH  069%=      5-min Rain = 0
KCR2 112120Z 04019KT 02/M04 A3042 RMK A01 T00151035  RH  069%=      5-min Rain = 0
KCR2 112121Z 04018KT 02/M04 A3043 RMK A01 T00151036  RH  069%=      5-min Rain = 0
KCR2 112122Z 04017KT 02/M04 A3043 RMK A01 T00151035  RH  069%=      5-min Rain = 0
KCR2 112123Z 04014G20KT 02/M04 A3043 RMK A01 T00151035  RH  069%=      5-min Rain = 0
KCR2 112124Z 04014KT 02/M03 A3043 RMK A01 T00151034  RH  070%=      5-min Rain = 0
KCR2 112125Z 03016KT 02/M04 A3043 RMK A01 T00151035  RH  069%=      5-min Rain = 0
KCR2 112126Z 03015KT 02/M04 A3043 RMK A01 T00151035  RH  069%=      5-min Rain = 0
KCR2 112127Z 03015KT 02/M03 A3043 RMK A01 T00161034  RH  069%=      5-min Rain = 0
KCR2 112128Z 03014KT 02/M04 A3044 RMK A01 T00161035  RH  069%=      5-min Rain = 0
KCR2 112129Z 03012G17KT 02/M04 A3044 RMK A01 T00161035  RH  069%=      5-min Rain = 0
KCR2 112130Z 03012KT 02/M04 A3044 RMK A01 T00161035  RH  069%=      5-min Rain = 0
KCR2 112131Z 03012KT 02/M03 A3044 RMK A01 T00161034  RH  069%=      5-min Rain = 0
KCR2 112132Z 03014KT 02/M03 A3044 RMK A01 T00171034  RH  069%=      5-min Rain = 0
KCR2 112133Z 03014KT 02/M03 A3044 RMK A01 T00171034  RH  069%=      5-min Rain = 0
KCR2 112134Z 03015KT 02/M04 A3044 RMK A01 T00171035  RH  069%=      5-min Rain = 0
KCR2 112135Z 03016KT 02/M03 A3044 RMK A01 T00171034  RH  069%=      5-min Rain = 0
KCR2 112136Z 03015KT 02/M04 A3044 RMK A01 T00171035  RH  069%=      5-min Rain = 0
KCR2 112137Z 04014KT 02/M04 A3044 RMK A01 T00171035  RH  069%=      5-min Rain = 0
KCR2 112138Z 04015KT 02/M04 A3045 RMK A01 T00171035  RH  069%=      5-min Rain = 0
KCR2 112139Z 04014KT 02/M04 A3045 RMK A01 T00171035  RH  068%=      5-min Rain = 0
KCR2 112140Z 03014KT 02/M04 A3045 RMK A01 T00171035  RH  068%=      5-min Rain = 0
KCR2 112141Z 03013KT 02/M04 A3045 RMK A01 T00171035  RH  068%=      5-min Rain = 0
KCR2 112142Z 04015KT 02/M04 A3045 RMK A01 T00171035  RH  068%=      5-min Rain = 0
KCR2 112143Z 04017KT 02/M04 A3044 RMK A01 T00171035  RH  068%=      5-min Rain = 0
KCR2 112144Z 04013KT 02/M04 A3045 RMK A01 T00171036  RH  068%=      5-min Rain = 0
KCR2 112145Z 04012KT 02/M04 A3045 RMK A01 T00171035  RH  068%=      5-min Rain = 0
KCR2 112146Z 04016KT 02/M04 A3045 RMK A01 T00181035  RH  068%=      5-min Rain = 0
KCR2 112147Z 03015KT 02/M04 A3045 RMK A01 T00171035  RH  068%=      5-min Rain = 0
KCR2 112148Z 04014KT 02/M04 A3045 RMK A01 T00171035  RH  068%=      5-min Rain = 0
KCR2 112149Z 03012KT 02/M03 A3045 RMK A01 T00171034  RH  069%=      5-min Rain = 0
KCR2 112150Z 03015KT 02/M03 A3045 RMK A01 T00181033  RH  069%=      5-min Rain = 0
KCR2 112151Z 04014KT 02/M03 A3045 RMK A01 T00171033  RH  069%=      5-min Rain = 0
KCR2 112152Z 04013KT 02/M03 A3045 RMK A01 T00171031  RH  070%=      5-min Rain = 0
KCR2 112153Z 04012KT 02/M03 A3045 RMK A01 T00171030  RH  071%=      5-min Rain = 0
KCR2 112154Z 04013KT 02/M03 A3045 RMK A01 T00171031  RH  070%=      5-min Rain = 0
KCR2 112155Z 03011KT 02/M03 A3045 RMK A01 T00161031  RH  071%=      5-min Rain = 0
KCR2 112156Z 03009KT 02/M03 A3045 RMK A01 T00171029  RH  071%=      5-min Rain = 0
KCR2 112157Z 03008KT 02/M03 A3045 RMK A01 T00171029  RH  071%=      5-min Rain = 0
KCR2 112158Z 04010KT 02/M03 A3045 RMK A01 T00171028  RH  072%=      5-min Rain = 0
KCR2 112159Z 03011KT 02/M03 A3045 RMK A01 T00181029  RH  071%=      5-min Rain = 0
KCR2 112200Z 03010KT 02/M03 A3045 RMK A01 T00181029  RH  071%=      5-min Rain = 0
KCR2 112201Z 03012KT 02/M03 A3045 RMK A01 T00181030  RH  071%=      5-min Rain = 0
KCR2 112202Z 03013G19KT 02/M03 A3045 RMK A01 T00181032  RH  070%=      5-min Rain = 0
KCR2 112203Z 03014G19KT 02/M03 A3045 RMK A01 T00181032  RH  070%=      5-min Rain = 0
KCR2 112204Z 02014KT 02/M03 A3045 RMK A01 T00181030  RH  070%=      5-min Rain = 0
KCR2 112205Z 02014KT 02/M03 A3045 RMK A01 T00181030  RH  071%=      5-min Rain = 0
KCR2 112206Z 02016KT 02/M03 A3045 RMK A01 T00171030  RH  071%=      5-min Rain = 0
KCR2 112207Z 01014KT 02/M03 A3045 RMK A01 T00161030  RH  072%=      5-min Rain = 0
KCR2 112208Z 01014KT 02/M03 A3045 RMK A01 T00151028  RH  073%=      5-min Rain = 0
KCR2 112209Z 02013KT 02/M03 A3045 RMK A01 T00151027  RH  074%=      5-min Rain = 0
KCR2 112210Z 02011KT 01/M03 A3045 RMK A01 T00141026  RH  075%=      5-min Rain = 0
KCR2 112211Z 02013KT 01/M02 A3045 RMK A01 T00141024  RH  076%=      5-min Rain = 0
KCR2 112212Z 01015KT 01/M03 A3045 RMK A01 T00141025  RH  075%=      5-min Rain = 0
KCR2 112213Z 01016KT 01/M03 A3045 RMK A01 T00131026  RH  075%=      5-min Rain = 0
KCR2 112214Z 02015KT 01/M03 A3045 RMK A01 T00131027  RH  075%=      5-min Rain = 0
KCR2 112215Z 01014KT 01/M03 A3045 RMK A01 T00131025  RH  076%=      5-min Rain = 0
KCR2 112216Z 01014KT 01/M03 A3045 RMK A01 T00121025  RH  076%=      5-min Rain = 0
KCR2 112217Z 01015G20KT 01/M03 A3045 RMK A01 T00111025  RH  077%=      5-min Rain = 0
KCR2 112218Z 02013KT 01/M03 A3045 RMK A01 T00101025  RH  077%=      5-min Rain = 0
KCR2 112219Z 02013KT 01/M02 A3045 RMK A01 T00101023  RH  079%=      5-min Rain = 0
KCR2 112220Z 01013KT 01/M02 A3045 RMK A01 T00101021  RH  080%=      5-min Rain = 0
KCR2 112221Z 02013KT 01/M02 A3045 RMK A01 T00101021  RH  080%=      5-min Rain = 0
KCR2 112222Z 02017KT 01/M02 A3045 RMK A01 T00101022  RH  079%=      5-min Rain = 0
KCR2 112223Z 01014KT 01/M02 A3045 RMK A01 T00091023  RH  079%=      5-min Rain = 0
KCR2 112224Z 02014KT 01/M02 A3045 RMK A01 T00091023  RH  079%=      5-min Rain = 0
KCR2 112225Z 02015G20KT 01/M02 A3045 RMK A01 T00091023  RH  079%=      5-min Rain = 0
KCR2 112226Z 02014KT 01/M02 A3045 RMK A01 T00091022  RH  080%=      5-min Rain = 0
KCR2 112227Z 02014KT 01/M02 A3045 RMK A01 T00091022  RH  080%=      5-min Rain = 0
KCR2 112228Z 02017G22KT 01/M02 A3045 RMK A01 T00091021  RH  080%=      5-min Rain = 0
KCR2 112229Z 03017KT 01/M02 A3045 RMK A01 T00081023  RH  079%=      5-min Rain = 0
KCR2 112230Z 03015KT 01/M02 A3045 RMK A01 T00081024  RH  079%=      5-min Rain = 0
KCR2 112231Z 03015KT 01/M02 A3045 RMK A01 T00081023  RH  080%=      5-min Rain = 0
KCR2 112232Z 03014KT 01/M02 A3045 RMK A01 T00081022  RH  080%=      5-min Rain = 0
KCR2 112233Z 03017KT 01/M02 A3045 RMK A01 T00081023  RH  079%=      5-min Rain = 0
KCR2 112234Z 02015G20KT 01/M03 A3045 RMK A01 T00081025  RH  079%=      5-min Rain = 0
KCR2 112235Z 03014KT 01/M02 A3045 RMK A01 T00081023  RH  079%=      5-min Rain = 0
KCR2 112236Z 03012G18KT 01/M02 A3045 RMK A01 T00081023  RH  080%=      5-min Rain = 0
KCR2 112237Z 02014KT 01/M02 A3046 RMK A01 T00081022  RH  080%=      5-min Rain = 0
KCR2 112238Z 02015KT 01/M02 A3046 RMK A01 T00081023  RH  080%=      5-min Rain = 0
KCR2 112239Z 03015KT 01/M02 A3046 RMK A01 T00081023  RH  079%=      5-min Rain = 0
KCR2 112240Z 02015KT 01/M02 A3046 RMK A01 T00081024  RH  079%=      5-min Rain = 0
KCR2 112241Z 03017KT 01/M03 A3046 RMK A01 T00081026  RH  078%=      5-min Rain = 0
KCR2 112242Z 03015G22KT 01/M03 A3046 RMK A01 T00091027  RH  077%=      5-min Rain = 0
KCR2 112243Z 03013KT 01/M03 A3046 RMK A01 T00091025  RH  078%=      5-min Rain = 0
KCR2 112244Z 03014KT 01/M02 A3046 RMK A01 T00091024  RH  079%=      5-min Rain = 0
KCR2 112245Z 03011KT 01/M02 A3047 RMK A01 T00091024  RH  079%=      5-min Rain = 0
KCR2 112246Z 02010KT 01/M02 A3047 RMK A01 T00091022  RH  079%=      5-min Rain = 0
KCR2 112247Z 01011KT 01/M02 A3047 RMK A01 T00091022  RH  080%=      5-min Rain = 0
KCR2 112248Z 01015KT 01/M02 A3047 RMK A01 T00091023  RH  079%=      5-min Rain = 0
KCR2 112249Z 01013KT 01/M03 A3047 RMK A01 T00091025  RH  078%=      5-min Rain = 0
KCR2 112250Z 02015G20KT 01/M03 A3047 RMK A01 T00091025  RH  078%=      5-min Rain = 0
KCR2 112251Z 02015KT 01/M03 A3047 RMK A01 T00091026  RH  078%=      5-min Rain = 0
KCR2 112252Z 02015KT 01/M03 A3047 RMK A01 T00091026  RH  077%=      5-min Rain = 0
KCR2 112253Z 02014KT 01/M03 A3048 RMK A01 T00091026  RH  078%=      5-min Rain = 0
KCR2 112254Z 02015KT 01/M03 A3048 RMK A01 T00091026  RH  078%=      5-min Rain = 0
KCR2 112255Z 02013KT 01/M03 A3048 RMK A01 T00091026  RH  078%=      5-min Rain = 0
KCR2 112256Z 02014KT 01/M03 A3048 RMK A01 T00091026  RH  078%=      5-min Rain = 0
KCR2 112257Z 02011KT 01/M03 A3048 RMK A01 T00091025  RH  078%=      5-min Rain = 0
KCR2 112258Z 03011KT 01/M02 A3048 RMK A01 T00091024  RH  079%=      5-min Rain = 0
KCR2 112259Z 02010KT 01/M02 A3048 RMK A01 T00091023  RH  079%=      5-min Rain = 0
KCR2 112300Z 02011KT 01/M02 A3048 RMK A01 T00091023  RH  079%=      5-min Rain = 0
KCR2 112301Z 02011KT 01/M02 A3048 RMK A01 T00091023  RH  079%=      5-min Rain = 0
KCR2 112302Z 02013KT 01/M02 A3049 RMK A01 T00091023  RH  079%=      5-min Rain = 0
KCR2 112303Z 03013KT 01/M02 A3048 RMK A01 T00091024  RH  079%=      5-min Rain = 0
KCR2 112304Z 02014KT 01/M02 A3049 RMK A01 T00091024  RH  079%=      5-min Rain = 0
KCR2 112305Z 03012KT 01/M02 A3049 RMK A01 T00091024  RH  079%=      5-min Rain = 0
KCR2 112306Z 02013KT 01/M02 A3049 RMK A01 T00091024  RH  079%=      5-min Rain = 0
KCR2 112307Z 01011G16KT 01/M02 A3049 RMK A01 T00091022  RH  080%=      5-min Rain = 0
KCR2 112308Z 01014KT 01/M02 A3049 RMK A01 T00091021  RH  081%=      5-min Rain = 0
KCR2 112309Z 02017KT 01/M02 A3049 RMK A01 T00081022  RH  080%=      5-min Rain = 0
KCR2 112310Z 01015G20KT 01/M03 A3049 RMK A01 T00071025  RH  079%=      5-min Rain = 0
KCR2 112311Z 02015KT 01/M02 A3049 RMK A01 T00061024  RH  080%=      5-min Rain = 0
KCR2 112312Z 02014KT 01/M03 A3049 RMK A01 T00061025  RH  080%=      5-min Rain = 0
KCR2 112313Z 02011KT 01/M02 A3049 RMK A01 T00061024  RH  080%=      5-min Rain = 0
KCR2 112314Z 02014KT 01/M02 A3049 RMK A01 T00061022  RH  081%=      5-min Rain = 0
KCR2 112315Z 02016KT 01/M02 A3049 RMK A01 T00051024  RH  080%=      5-min Rain = 0
KCR2 112316Z 01014KT 01/M03 A3049 RMK A01 T00061026  RH  080%=      5-min Rain = 0
KCR2 112317Z 02014KT 01/M03 A3048 RMK A01 T00061025  RH  080%=      5-min Rain = 0
KCR2 112318Z 02012KT 01/M03 A3049 RMK A01 T00061025  RH  080%=      5-min Rain = 0
KCR2 112319Z 03014KT 01/M02 A3049 RMK A01 T00051024  RH  080%=      5-min Rain = 0
KCR2 112320Z 02014KT 01/M03 A3048 RMK A01 T00051025  RH  080%=      5-min Rain = 0
KCR2 112321Z 03014KT 01/M03 A3048 RMK A01 T00051026  RH  080%=      5-min Rain = 0
KCR2 112322Z 03012KT 01/M03 A3048 RMK A01 T00051025  RH  080%=      5-min Rain = 0
KCR2 112323Z 03011KT 01/M02 A3049 RMK A01 T00051024  RH  081%=      5-min Rain = 0
KCR2 112324Z 03011KT 01/M02 A3048 RMK A01 T00051023  RH  082%=      5-min Rain = 0
KCR2 112325Z 03011KT 01/M02 A3048 RMK A01 T00051022  RH  082%=      5-min Rain = 0
KCR2 112326Z 03013KT 01/M02 A3049 RMK A01 T00051024  RH  081%=      5-min Rain = 0
KCR2 112327Z 03011KT 01/M02 A3049 RMK A01 T00051024  RH  081%=      5-min Rain = 0
KCR2 112328Z 04012KT 01/M02 A3049 RMK A01 T00051023  RH  082%=      5-min Rain = 0
KCR2 112329Z 02010KT 00/M02 A3049 RMK A01 T00041024  RH  081%=      5-min Rain = 0
KCR2 112330Z 02011KT 00/M02 A3049 RMK A01 T00041024  RH  082%=      5-min Rain = 0
KCR2 112331Z 01012KT 00/M02 A3049 RMK A01 T00041023  RH  082%=      5-min Rain = 0
KCR2 112332Z 02011KT 00/M03 A3049 RMK A01 T00041025  RH  081%=      5-min Rain = 0
KCR2 112333Z 02012KT 00/M03 A3049 RMK A01 T00041026  RH  081%=      5-min Rain = 0
KCR2 112334Z 02013KT 00/M03 A3049 RMK A01 T00041026  RH  081%=      5-min Rain = 0
KCR2 112335Z 02012KT 00/M03 A3049 RMK A01 T00041027  RH  080%=      5-min Rain = 0
KCR2 112336Z 02012KT 00/M03 A3049 RMK A01 T00041026  RH  080%=      5-min Rain = 0
KCR2 112337Z 01009KT 00/M03 A3049 RMK A01 T00041025  RH  081%=      5-min Rain = 0
KCR2 112338Z 02012KT 00/M02 A305 RMK A01 T00041024  RH  082%=      5-min Rain = 0
KCR2 112339Z 02008KT 00/M03 A305 RMK A01 T00031025  RH  081%=      5-min Rain = 0
KCR2 112340Z 02011G17KT 00/M02 A305 RMK A01 T00031024  RH  082%=      5-min Rain = 0
KCR2 112341Z 02014KT 00/M03 A305 RMK A01 T00041027  RH  080%=      5-min Rain = 0
KCR2 112342Z 02013KT 00/M03 A305 RMK A01 T00031030  RH  079%=      5-min Rain = 0
KCR2 112343Z 02016KT 00/M03 A305 RMK A01 T00031030  RH  079%=      5-min Rain = 0
KCR2 112344Z 02013KT 00/M03 A305 RMK A01 T00031031  RH  078%=      5-min Rain = 0
KCR2 112345Z 02012KT 00/M03 A305 RMK A01 T00031030  RH  078%=      5-min Rain = 0
KCR2 112346Z 02015KT 00/M03 A305 RMK A01 T00031030  RH  079%=      5-min Rain = 0
KCR2 112347Z 03013KT 00/M03 A305 RMK A01 T00031030  RH  078%=      5-min Rain = 0
KCR2 112348Z 03013KT 00/M03 A305 RMK A01 T00031030  RH  079%=      5-min Rain = 0
KCR2 112349Z 03012KT 00/M03 A305 RMK A01 T00031029  RH  079%=      5-min Rain = 0
KCR2 112350Z 03012KT 00/M03 A305 RMK A01 T00031028  RH  080%=      5-min Rain = 0
KCR2 112351Z 03011KT 00/M03 A305 RMK A01 T00031028  RH  080%=      5-min Rain = 0
KCR2 112352Z 03014KT 00/M03 A305 RMK A01 T00021027  RH  081%=      5-min Rain = 0
KCR2 112353Z 03015KT 00/M03 A3051 RMK A01 T00021029  RH  079%=      5-min Rain = 0
KCR2 112354Z 02011G16KT 00/M03 A3051 RMK A01 T00031030  RH  079%=      5-min Rain = 0
KCR2 112355Z 02010KT 00/M03 A3051 RMK A01 T00021027  RH  081%=      5-min Rain = 0
KCR2 112356Z 02010KT 00/M03 A3051 RMK A01 T00021026  RH  081%=      5-min Rain = 0
KCR2 112357Z 03011KT 00/M03 A3051 RMK A01 T00021027  RH  081%=      5-min Rain = 0
KCR2 112358Z 03011KT 00/M03 A3051 RMK A01 T00021027  RH  080%=      5-min Rain = 0
KCR2 112359Z 03010KT 00/M03 A3051 RMK A01 T00031027  RH  081%=      5-min Rain = 0
KCR2 120000Z 02010KT 00/M03 A3051 RMK A01 T00031025  RH  082%=      5-min Rain = 0
KCR2 120001Z 02010KT 00/M03 A3051 RMK A01 T00021025  RH  082%=      5-min Rain = 0
KCR2 120002Z 02011KT 00/M03 A3051 RMK A01 T00021026  RH  081%=      5-min Rain = 0
KCR2 120003Z 01012KT 00/M03 A3051 RMK A01 T00021025  RH  082%=      5-min Rain = 0
KCR2 120004Z 02013KT 00/M03 A3051 RMK A01 T00021026  RH  082%=      5-min Rain = 0
KCR2 120005Z 01012G17KT 00/M03 A3051 RMK A01 T00011026  RH  082%=      5-min Rain = 0
KCR2 120006Z 02012KT 00/M03 A3051 RMK A01 T00021026  RH  082%=      5-min Rain = 0
KCR2 120007Z 02012KT 00/M03 A305 RMK A01 T00011027  RH  081%=      5-min Rain = 0
KCR2 120008Z 02012KT 00/M03 A305 RMK A01 T00011027  RH  081%=      5-min Rain = 0
KCR2 120009Z 03010KT 00/M03 A305 RMK A01 T00011027  RH  082%=      5-min Rain = 0
KCR2 120010Z 02011KT 00/M03 A305 RMK A01 T00011026  RH  082%=      5-min Rain = 0
KCR2 120011Z 02013KT 00/M03 A305 RMK A01 T00011027  RH  082%=      5-min Rain = 0
KCR2 120012Z 03010KT 00/M03 A3051 RMK A01 T00011028  RH  081%=      5-min Rain = 0
KCR2 120013Z 02010KT 00/M03 A3051 RMK A01 T00011027  RH  081%=      5-min Rain = 0
KCR2 120014Z 02011KT 00/M03 A3051 RMK A01 T00011028  RH  081%=      5-min Rain = 0
KCR2 120015Z 02012KT 00/M03 A3051 RMK A01 T00021028  RH  080%=      5-min Rain = 0
KCR2 120016Z 02014KT 00/M03 A3051 RMK A01 T00011032  RH  078%=      5-min Rain = 0
KCR2 120017Z 03014KT 00/M04 A3051 RMK A01 T00021035  RH  076%=      5-min Rain = 0
KCR2 120018Z 02012KT 00/M04 A3051 RMK A01 T00021036  RH  076%=      5-min Rain = 0
KCR2 120019Z 03011KT 00/M04 A3051 RMK A01 T00021035  RH  076%=      5-min Rain = 0
KCR2 120020Z 02009KT 00/M03 A3051 RMK A01 T00021033  RH  077%=      5-min Rain = 0
KCR2 120021Z 03008KT 00/M03 A3051 RMK A01 T00021031  RH  079%=      5-min Rain = 0
KCR2 120022Z 03010KT 00/M03 A3051 RMK A01 T00021030  RH  079%=      5-min Rain = 0
KCR2 120023Z 02009KT 00/M03 A3051 RMK A01 T00021032  RH  078%=      5-min Rain = 0
KCR2 120024Z 02007KT 00/M03 A3051 RMK A01 T00021031  RH  079%=      5-min Rain = 0
KCR2 120025Z 02007KT 00/M03 A3051 RMK A01 T00021029  RH  079%=      5-min Rain = 0
KCR2 120026Z 03008KT 00/M03 A3051 RMK A01 T00021029  RH  079%=      5-min Rain = 0
KCR2 120027Z 03010KT 00/M03 A3051 RMK A01 T00021031  RH  078%=      5-min Rain = 0
KCR2 120028Z 02009KT 00/M03 A3051 RMK A01 T00021032  RH  078%=      5-min Rain = 0
KCR2 120029Z 02008KT 00/M03 A3052 RMK A01 T00021033  RH  077%=      5-min Rain = 0
KCR2 120030Z 02008KT 00/M03 A3051 RMK A01 T00031031  RH  078%=      5-min Rain = 0
KCR2 120031Z 02010KT 00/M03 A3051 RMK A01 T00031033  RH  077%=      5-min Rain = 0
KCR2 120032Z 02010KT 00/M03 A3051 RMK A01 T00031034  RH  077%=      5-min Rain = 0
KCR2 120033Z 02010KT 00/M03 A3051 RMK A01 T00031033  RH  077%=      5-min Rain = 0
KCR2 120034Z 02013G18KT 00/M03 A3052 RMK A01 T00031034  RH  076%=      5-min Rain = 0
KCR2 120035Z 02017KT 00/M04 A3051 RMK A01 T00031037  RH  074%=      5-min Rain = 0
KCR2 120036Z 02013KT 00/M04 A3051 RMK A01 T00031040  RH  073%=      5-min Rain = 0
KCR2 120037Z 01011KT 00/M04 A3052 RMK A01 T00041039  RH  073%=      5-min Rain = 0
KCR2 120038Z 02012KT 00/M04 A3052 RMK A01 T00041037  RH  074%=      5-min Rain = 0
KCR2 120039Z 02011KT 00/M04 A3052 RMK A01 T00041036  RH  075%=      5-min Rain = 0
KCR2 120040Z 02012KT 00/M04 A3052 RMK A01 T00041036  RH  075%=      5-min Rain = 0
KCR2 120041Z 01011KT 00/M04 A3052 RMK A01 T00041037  RH  074%=      5-min Rain = 0
KCR2 120042Z 01016KT 00/M04 A3052 RMK A01 T00041038  RH  073%=      5-min Rain = 0
KCR2 120043Z 01013G18KT 00/M04 A3052 RMK A01 T00041042  RH  071%=      5-min Rain = 0
KCR2 120044Z 01014KT 00/M04 A3052 RMK A01 T00041041  RH  072%=      5-min Rain = 0
KCR2 120045Z 01016KT 00/M04 A3052 RMK A01 T00031042  RH  072%=      5-min Rain = 0
KCR2 120046Z 01012KT 00/M04 A3052 RMK A01 T00031042  RH  072%=      5-min Rain = 0
KCR2 120047Z 02013KT 00/M04 A3052 RMK A01 T00031040  RH  072%=      5-min Rain = 0
KCR2 120048Z 02014KT 00/M04 A3052 RMK A01 T00031041  RH  072%=      5-min Rain = 0
KCR2 120049Z 02011KT 00/M04 A3052 RMK A01 T00031042  RH  071%=      5-min Rain = 0
KCR2 120050Z 02013KT 00/M04 A3052 RMK A01 T00031040  RH  073%=      5-min Rain = 0
KCR2 120051Z 03012G17KT 00/M04 A3052 RMK A01 T00031042  RH  072%=      5-min Rain = 0
KCR2 120052Z 02013G18KT 00/M04 A3052 RMK A01 T00031043  RH  071%=      5-min Rain = 0
KCR2 120053Z 02013KT 00/M05 A3052 RMK A01 T00031045  RH  070%=      5-min Rain = 0
KCR2 120054Z 01012KT 00/M04 A3052 RMK A01 T00031044  RH  071%=      5-min Rain = 0
KCR2 120055Z 01014KT 00/M04 A3052 RMK A01 T00031044  RH  071%=      5-min Rain = 0
KCR2 120056Z 02011KT 00/M05 A3052 RMK A01 T00031045  RH  070%=      5-min Rain = 0
KCR2 120057Z 01012KT 00/M04 A3052 RMK A01 T00031044  RH  071%=      5-min Rain = 0
KCR2 120058Z 02012KT 00/M04 A3052 RMK A01 T00041044  RH  071%=      5-min Rain = 0
KCR2 120059Z 02012KT 00/M04 A3053 RMK A01 T00031044  RH  071%=      5-min Rain = 0
KCR2 120100Z 02011KT 00/M04 A3053 RMK A01 T00031044  RH  071%=      5-min Rain = 0
KCR2 120101Z 02009KT 00/M04 A3053 RMK A01 T00031042  RH  071%=      5-min Rain = 0
KCR2 120102Z 03009KT 00/M04 A3053 RMK A01 T00031042  RH  072%=      5-min Rain = 0
KCR2 120103Z 02010KT 00/M04 A3053 RMK A01 T00031040  RH  072%=      5-min Rain = 0
KCR2 120104Z 02012KT 00/M04 A3053 RMK A01 T00031040  RH  072%=      5-min Rain = 0
KCR2 120105Z 02014KT 00/M04 A3053 RMK A01 T00031043  RH  071%=      5-min Rain = 0
KCR2 120106Z 02012KT 00/M04 A3053 RMK A01 T00031044  RH  070%=      5-min Rain = 0
KCR2 120107Z 02014KT 00/M04 A3053 RMK A01 T00031043  RH  071%=      5-min Rain = 0
KCR2 120108Z 02011KT 00/M04 A3053 RMK A01 T00031043  RH  071%=      5-min Rain = 0
KCR2 120109Z 02011KT 00/M04 A3053 RMK A01 T00031043  RH  071%=      5-min Rain = 0
KCR2 120110Z 02010KT 00/M04 A3053 RMK A01 T00041043  RH  071%=      5-min Rain = 0
KCR2 120111Z 02009KT 00/M04 A3053 RMK A01 T00041042  RH  072%=      5-min Rain = 0
KCR2 120112Z 02013G18KT 00/M04 A3053 RMK A01 T00041041  RH  072%=      5-min Rain = 0
KCR2 120113Z 02013KT 00/M04 A3053 RMK A01 T00031043  RH  071%=      5-min Rain = 0
KCR2 120114Z 02012KT 00/M04 A3053 RMK A01 T00031044  RH  070%=      5-min Rain = 0
KCR2 120115Z 02013KT 00/M05 A3053 RMK A01 T00031046  RH  070%=      5-min Rain = 0
KCR2 120116Z 02012KT 00/M05 A3053 RMK A01 T00031045  RH  070%=      5-min Rain = 0
KCR2 120117Z 02013KT 00/M05 A3053 RMK A01 T00031045  RH  070%=      5-min Rain = 0
KCR2 120118Z 02010KT 00/M05 A3053 RMK A01 T00031045  RH  070%=      5-min Rain = 0
KCR2 120119Z 02011KT 00/M04 A3053 RMK A01 T00031044  RH  070%=      5-min Rain = 0
KCR2 120120Z 03011KT 00/M04 A3053 RMK A01 T00031044  RH  070%=      5-min Rain = 0
KCR2 120121Z 02011KT 00/M04 A3053 RMK A01 T00031044  RH  070%=      5-min Rain = 0
KCR2 120122Z 02012KT 00/M05 A3053 RMK A01 T00031045  RH  070%=      5-min Rain = 0
KCR2 120123Z 03011KT 00/M05 A3054 RMK A01 T00031047  RH  069%=      5-min Rain = 0
KCR2 120124Z 03011KT 00/M05 A3054 RMK A01 T00041046  RH  069%=      5-min Rain = 0
KCR2 120125Z 02013KT 00/M05 A3054 RMK A01 T00031048  RH  069%=      5-min Rain = 0
KCR2 120126Z 02012KT 00/M05 A3054 RMK A01 T00031049  RH  068%=      5-min Rain = 0
KCR2 120127Z 03010KT 00/M05 A3054 RMK A01 T00031048  RH  069%=      5-min Rain = 0
KCR2 120128Z 02010KT 00/M05 A3054 RMK A01 T00031047  RH  069%=      5-min Rain = 0
KCR2 120129Z 03010KT 00/M05 A3054 RMK A01 T00031046  RH  069%=      5-min Rain = 0
KCR2 120130Z 03010KT 00/M05 A3054 RMK A01 T00041045  RH  070%=      5-min Rain = 0
KCR2 120131Z 03010KT 00/M05 A3054 RMK A01 T00031046  RH  069%=      5-min Rain = 0
KCR2 120132Z 02011KT 00/M05 A3054 RMK A01 T00031045  RH  070%=      5-min Rain = 0
KCR2 120133Z 02014KT 00/M05 A3054 RMK A01 T00041046  RH  069%=      5-min Rain = 0
KCR2 120134Z 03010KT 00/M05 A3054 RMK A01 T00031048  RH  068%=      5-min Rain = 0
KCR2 120135Z 03008KT 00/M05 A3054 RMK A01 T00041046  RH  069%=      5-min Rain = 0
KCR2 120136Z 03008KT 00/M04 A3054 RMK A01 T00041044  RH  070%=      5-min Rain = 0
KCR2 120137Z 02008KT 00/M04 A3054 RMK A01 T00041043  RH  071%=      5-min Rain = 0
KCR2 120138Z 02013KT 00/M04 A3054 RMK A01 T00041044  RH  070%=      5-min Rain = 0
KCR2 120139Z 02011KT 00/M05 A3054 RMK A01 T00041048  RH  068%=      5-min Rain = 0
KCR2 120140Z 02012KT 00/M05 A3054 RMK A01 T00041048  RH  068%=      5-min Rain = 0
KCR2 120141Z 03012KT 00/M05 A3054 RMK A01 T00041049  RH  068%=      5-min Rain = 0
KCR2 120142Z 02011KT 00/M05 A3054 RMK A01 T00041049  RH  067%=      5-min Rain = 0
KCR2 120143Z 02012KT 00/M05 A3054 RMK A01 T00041049  RH  068%=      5-min Rain = 0
KCR2 120144Z 02013KT 00/M05 A3054 RMK A01 T00041051  RH  066%=      5-min Rain = 0
KCR2 120145Z 03012KT 00/M05 A3054 RMK A01 T00041052  RH  066%=      5-min Rain = 0
KCR2 120146Z 03009KT 00/M05 A3054 RMK A01 T00041050  RH  067%=      5-min Rain = 0
KCR2 120147Z 02010KT 01/M05 A3054 RMK A01 T00051047  RH  068%=      5-min Rain = 0
KCR2 120148Z 02012KT 01/M05 A3054 RMK A01 T00051046  RH  069%=      5-min Rain = 0
KCR2 120149Z 03008KT 01/M05 A3054 RMK A01 T00051049  RH  067%=      5-min Rain = 0
KCR2 120150Z 03010KT 00/M05 A3054 RMK A01 T00041048  RH  068%=      5-min Rain = 0
KCR2 120151Z 03011KT 01/M05 A3054 RMK A01 T00051049  RH  067%=      5-min Rain = 0
KCR2 120152Z 03011KT 01/M05 A3054 RMK A01 T00051049  RH  067%=      5-min Rain = 0
KCR2 120153Z 03011KT 01/M05 A3054 RMK A01 T00051049  RH  067%=      5-min Rain = 0
KCR2 120154Z 03011KT 01/M05 A3054 RMK A01 T00051050  RH  067%=      5-min Rain = 0
KCR2 120155Z 03009KT 01/M05 A3054 RMK A01 T00051050  RH  067%=      5-min Rain = 0
KCR2 120156Z 03008KT 01/M05 A3053 RMK A01 T00051048  RH  067%=      5-min Rain = 0
KCR2 120157Z 04007KT 01/M05 A3053 RMK A01 T00051048  RH  068%=      5-min Rain = 0
KCR2 120158Z 04010KT 01/M05 A3053 RMK A01 T00051048  RH  067%=      5-min Rain = 0
KCR2 120159Z 02011KT 01/M05 A3053 RMK A01 T00051050  RH  066%=      5-min Rain = 0
KCR2 120200Z 02011KT 01/M05 A3053 RMK A01 T00051051  RH  066%=      5-min Rain = 0
KCR2 120201Z 03010KT 01/M05 A3053 RMK A01 T00051052  RH  066%=      5-min Rain = 0
KCR2 120202Z 03011KT 01/M05 A3053 RMK A01 T00051051  RH  066%=      5-min Rain = 0
KCR2 120203Z 03013KT 01/M05 A3053 RMK A01 T00061052  RH  065%=      5-min Rain = 0
KCR2 120204Z 03011KT 01/M06 A3053 RMK A01 T00061055  RH  064%=      5-min Rain = 0
KCR2 120205Z 03009KT 01/M06 A3053 RMK A01 T00061055  RH  064%=      5-min Rain = 0
KCR2 120206Z 04015G20KT 01/M05 A3053 RMK A01 T00051054  RH  064%=      5-min Rain = 0
KCR2 120207Z 03014KT 01/M06 A3053 RMK A01 T00061057  RH  063%=      5-min Rain = 0
KCR2 120208Z 03012KT 01/M06 A3053 RMK A01 T00061057  RH  063%=      5-min Rain = 0
KCR2 120209Z 04015KT 01/M06 A3053 RMK A01 T00061057  RH  063%=      5-min Rain = 0
KCR2 120210Z 04015KT 01/M06 A3053 RMK A01 T00061059  RH  062%=      5-min Rain = 0
KCR2 120211Z 03013KT 01/M06 A3054 RMK A01 T00061060  RH  061%=      5-min Rain = 0
KCR2 120212Z 03013KT 01/M06 A3054 RMK A01 T00061059  RH  062%=      5-min Rain = 0
KCR2 120213Z 03014KT 01/M06 A3054 RMK A01 T00061059  RH  062%=      5-min Rain = 0
KCR2 120214Z 03014G20KT 01/M06 A3054 RMK A01 T00061059  RH  062%=      5-min Rain = 0
KCR2 120215Z 03010KT 01/M06 A3054 RMK A01 T00061060  RH  061%=      5-min Rain = 0
KCR2 120216Z 03015KT 01/M06 A3054 RMK A01 T00061059  RH  062%=      5-min Rain = 0
KCR2 120217Z 02011KT 01/M06 A3054 RMK A01 T00061060  RH  061%=      5-min Rain = 0
KCR2 120218Z 02015KT 01/M06 A3054 RMK A01 T00061059  RH  062%=      5-min Rain = 0
KCR2 120219Z 02014KT 01/M06 A3054 RMK A01 T00061061  RH  061%=      5-min Rain = 0
KCR2 120220Z 03013KT 01/M06 A3054 RMK A01 T00061061  RH  061%=      5-min Rain = 0
KCR2 120221Z 03011KT 01/M06 A3054 RMK A01 T00061059  RH  061%=      5-min Rain = 0
KCR2 120222Z 02012KT 01/M06 A3054 RMK A01 T00061059  RH  062%=      5-min Rain = 0
KCR2 120223Z 02011KT 01/M06 A3054 RMK A01 T00061059  RH  062%=      5-min Rain = 0
KCR2 120224Z 03010KT 01/M06 A3054 RMK A01 T00061059  RH  062%=      5-min Rain = 0
KCR2 120225Z 03010KT 01/M06 A3055 RMK A01 T00061060  RH  061%=      5-min Rain = 0
KCR2 120226Z 02009KT 01/M06 A3055 RMK A01 T00061057  RH  062%=      5-min Rain = 0
KCR2 120227Z 02007KT 01/M06 A3055 RMK A01 T00071057  RH  063%=      5-min Rain = 0
KCR2 120228Z 03010KT 01/M06 A3055 RMK A01 T00071056  RH  063%=      5-min Rain = 0
KCR2 120229Z 03011KT 01/M06 A3055 RMK A01 T00071056  RH  063%=      5-min Rain = 0
KCR2 120230Z 03012KT 01/M06 A3055 RMK A01 T00061059  RH  061%=      5-min Rain = 0
KCR2 120231Z 03010KT 01/M06 A3055 RMK A01 T00061059  RH  061%=      5-min Rain = 0
KCR2 120232Z 03013KT 01/M06 A3055 RMK A01 T00071057  RH  062%=      5-min Rain = 0
KCR2 120233Z 03011KT 01/M06 A3055 RMK A01 T00071058  RH  062%=      5-min Rain = 0
KCR2 120234Z 03009KT 01/M06 A3055 RMK A01 T00071058  RH  062%=      5-min Rain = 0
KCR2 120235Z 04010KT 01/M06 A3055 RMK A01 T00071058  RH  062%=      5-min Rain = 0
KCR2 120236Z 03008KT 01/M06 A3055 RMK A01 T00071057  RH  062%=      5-min Rain = 0
KCR2 120237Z 04008G13KT 01/M06 A3055 RMK A01 T00081056  RH  063%=      5-min Rain = 0
KCR2 120238Z 04010KT 01/M06 A3056 RMK A01 T00071056  RH  062%=      5-min Rain = 0
KCR2 120239Z 04015KT 01/M06 A3055 RMK A01 T00071059  RH  061%=      5-min Rain = 0
KCR2 120240Z 04013KT 01/M06 A3055 RMK A01 T00071063  RH  059%=      5-min Rain = 0
KCR2 120241Z 04013KT 01/M06 A3055 RMK A01 T00071063  RH  059%=      5-min Rain = 0
KCR2 120242Z 03015KT 01/M06 A3056 RMK A01 T00081064  RH  059%=      5-min Rain = 0
KCR2 120243Z 04016KT 01/M07 A3055 RMK A01 T00071065  RH  058%=      5-min Rain = 0
KCR2 120244Z 03013KT 01/M06 A3056 RMK A01 T00081064  RH  059%=      5-min Rain = 0
KCR2 120245Z 04016KT 01/M06 A3056 RMK A01 T00071064  RH  059%=      5-min Rain = 0
KCR2 120246Z 03012KT 01/M07 A3056 RMK A01 T00071065  RH  059%=      5-min Rain = 0
KCR2 120247Z 04013KT 01/M07 A3056 RMK A01 T00071065  RH  059%=      5-min Rain = 0
KCR2 120248Z 04012KT 01/M07 A3056 RMK A01 T00071066  RH  058%=      5-min Rain = 0
KCR2 120249Z 03011KT 01/M07 A3056 RMK A01 T00071065  RH  059%=      5-min Rain = 0
KCR2 120250Z 03010KT 01/M06 A3056 RMK A01 T00071063  RH  059%=      5-min Rain = 0
KCR2 120251Z 03012KT 01/M06 A3056 RMK A01 T00071064  RH  059%=      5-min Rain = 0
KCR2 120252Z 03009KT 01/M06 A3056 RMK A01 T00081063  RH  059%=      5-min Rain = 0
KCR2 120253Z 03009KT 01/M06 A3056 RMK A01 T00081061  RH  060%=      5-min Rain = 0
KCR2 120254Z 03010KT 01/M06 A3056 RMK A01 T00081060  RH  061%=      5-min Rain = 0
KCR2 120255Z 03008KT 01/M06 A3056 RMK A01 T00071061  RH  060%=      5-min Rain = 0
KCR2 120256Z 03007KT 01/M06 A3056 RMK A01 T00071058  RH  061%=      5-min Rain = 0
KCR2 120257Z 03008KT 01/M06 A3056 RMK A01 T00081056  RH  062%=      5-min Rain = 0
KCR2 120258Z 03010KT 01/M06 A3056 RMK A01 T00071059  RH  061%=      5-min Rain = 0
KCR2 120259Z 03011KT 01/M06 A3056 RMK A01 T00071060  RH  061%=      5-min Rain = 0
KCR2 120300Z 02010KT 01/M06 A3056 RMK A01 T00071058  RH  062%=      5-min Rain = 0
KCR2 120301Z 03010KT 01/M06 A3057 RMK A01 T00071059  RH  061%=      5-min Rain = 0
KCR2 120302Z 03012KT 01/M06 A3057 RMK A01 T00071061  RH  060%=      5-min Rain = 0
KCR2 120303Z 03012KT 01/M06 A3057 RMK A01 T00071061  RH  060%=      5-min Rain = 0
KCR2 120304Z 03012KT 01/M06 A3057 RMK A01 T00071062  RH  060%=      5-min Rain = 0
KCR2 120305Z 03012KT 01/M06 A3057 RMK A01 T00061063  RH  060%=      5-min Rain = 0
KCR2 120306Z 02013G18KT 01/M06 A3057 RMK A01 T00061062  RH  060%=      5-min Rain = 0
KCR2 120307Z 03009KT 01/M06 A3057 RMK A01 T00061061  RH  061%=      5-min Rain = 0
KCR2 120308Z 04012KT 01/M06 A3057 RMK A01 T00061059  RH  061%=      5-min Rain = 0
KCR2 120309Z 03010KT 01/M06 A3057 RMK A01 T00061060  RH  061%=      5-min Rain = 0
KCR2 120310Z 03010KT 01/M06 A3057 RMK A01 T00061059  RH  062%=      5-min Rain = 0
KCR2 120311Z 02010KT 01/M06 A3057 RMK A01 T00061060  RH  061%=      5-min Rain = 0
KCR2 120312Z 04012KT 01/M06 A3057 RMK A01 T00061061  RH  061%=      5-min Rain = 0
KCR2 120313Z 03011KT 01/M06 A3057 RMK A01 T00061060  RH  061%=      5-min Rain = 0
KCR2 120314Z 02010KT 01/M06 A3057 RMK A01 T00061059  RH  062%=      5-min Rain = 0
KCR2 120315Z 02011KT 01/M06 A3058 RMK A01 T00061060  RH  061%=      5-min Rain = 0
KCR2 120316Z 03009KT 01/M06 A3058 RMK A01 T00061059  RH  062%=      5-min Rain = 0
KCR2 120317Z 02010KT 01/M06 A3058 RMK A01 T00061058  RH  062%=      5-min Rain = 0
KCR2 120318Z 02013KT 01/M06 A3058 RMK A01 T00061060  RH  061%=      5-min Rain = 0
KCR2 120319Z 02011KT 01/M06 A3058 RMK A01 T00061062  RH  061%=      5-min Rain = 0
KCR2 120320Z 02011KT 01/M06 A3058 RMK A01 T00061059  RH  062%=      5-min Rain = 0
KCR2 120321Z 02012KT 01/M06 A3058 RMK A01 T00071060  RH  061%=      5-min Rain = 0
KCR2 120322Z 02010KT 01/M06 A3058 RMK A01 T00071060  RH  061%=      5-min Rain = 0
KCR2 120323Z 03009KT 01/M06 A3058 RMK A01 T00071059  RH  061%=      5-min Rain = 0
KCR2 120324Z 03010KT 01/M06 A3058 RMK A01 T00071058  RH  062%=      5-min Rain = 0
KCR2 120325Z 03011KT 01/M06 A3058 RMK A01 T00071058  RH  062%=      5-min Rain = 0
KCR2 120326Z 03009KT 01/M06 A3058 RMK A01 T00071059  RH  062%=      5-min Rain = 0
KCR2 120327Z 03011KT 01/M06 A3058 RMK A01 T00061059  RH  062%=      5-min Rain = 0
KCR2 120328Z 03013KT 01/M06 A3058 RMK A01 T00061061  RH  061%=      5-min Rain = 0
KCR2 120329Z 03013KT 01/M06 A3058 RMK A01 T00061062  RH  060%=      5-min Rain = 0
KCR2 120330Z 03011KT 01/M06 A3058 RMK A01 T00061062  RH  060%=      5-min Rain = 0
KCR2 120331Z 03011KT 01/M06 A3058 RMK A01 T00061061  RH  061%=      5-min Rain = 0
KCR2 120332Z 03010KT 01/M06 A3058 RMK A01 T00061061  RH  061%=      5-min Rain = 0
KCR2 120333Z 03010KT 01/M06 A3058 RMK A01 T00061059  RH  062%=      5-min Rain = 0
KCR2 120334Z 03012KT 01/M06 A3058 RMK A01 T00061059  RH  062%=      5-min Rain = 0
KCR2 120335Z 02012KT 01/M06 A3058 RMK A01 T00051060  RH  062%=      5-min Rain = 0
KCR2 120336Z 02011KT 01/M06 A3058 RMK A01 T00061059  RH  062%=      5-min Rain = 0
KCR2 120337Z 02010KT 01/M06 A3058 RMK A01 T00051059  RH  062%=      5-min Rain = 0
KCR2 120338Z 03010KT 01/M06 A3058 RMK A01 T00051057  RH  063%=      5-min Rain = 0
KCR2 120339Z 03012KT 01/M06 A3058 RMK A01 T00051057  RH  063%=      5-min Rain = 0
KCR2 120340Z 03011KT 01/M06 A3058 RMK A01 T00051057  RH  063%=      5-min Rain = 0
KCR2 120341Z 02009KT 01/M06 A3058 RMK A01 T00051057  RH  064%=      5-min Rain = 0
KCR2 120342Z 03007KT 01/M06 A3058 RMK A01 T00051055  RH  064%=      5-min Rain = 0
KCR2 120343Z 02009KT 01/M05 A3058 RMK A01 T00051052  RH  065%=      5-min Rain = 0
KCR2 120344Z 02010KT 01/M05 A3058 RMK A01 T00051053  RH  065%=      5-min Rain = 0
KCR2 120345Z 03008KT 01/M05 A3058 RMK A01 T00051053  RH  065%=      5-min Rain = 0
KCR2 120346Z 03010KT 01/M05 A3058 RMK A01 T00051052  RH  066%=      5-min Rain = 0
KCR2 120347Z 03009KT 00/M05 A3058 RMK A01 T00041054  RH  065%=      5-min Rain = 0
KCR2 120348Z 02008KT 00/M05 A3058 RMK A01 T00041053  RH  065%=      5-min Rain = 0
KCR2 120349Z 02010KT 00/M05 A3059 RMK A01 T00041052  RH  066%=      5-min Rain = 0
KCR2 120350Z 03011KT 00/M05 A3059 RMK A01 T00041052  RH  066%=      5-min Rain = 0
KCR2 120351Z 02009KT 00/M05 A3059 RMK A01 T00041053  RH  066%=      5-min Rain = 0
KCR2 120352Z 01008KT 00/M05 A3059 RMK A01 T00041052  RH  066%=      5-min Rain = 0
KCR2 120353Z 01012KT 00/M05 A3059 RMK A01 T00041050  RH  067%=      5-min Rain = 0
KCR2 120354Z 02011KT 00/M05 A3059 RMK A01 T00041051  RH  067%=      5-min Rain = 0
KCR2 120355Z 02008KT 00/M05 A3059 RMK A01 T00041050  RH  067%=      5-min Rain = 0
KCR2 120356Z 01010KT 00/M05 A3059 RMK A01 T00041049  RH  068%=      5-min Rain = 0
KCR2 120357Z 01008KT 00/M05 A3059 RMK A01 T00041049  RH  068%=      5-min Rain = 0
KCR2 120358Z 00009KT 00/M05 A3059 RMK A01 T00041048  RH  068%=      5-min Rain = 0
KCR2 120359Z 01009KT 00/M05 A3059 RMK A01 T00041048  RH  068%=      5-min Rain = 0
KCR2 120400Z 02009KT 00/M05 A3059 RMK A01 T00041047  RH  068%=      5-min Rain = 0
KCR2 120401Z 02010KT 00/M05 A3059 RMK A01 T00041047  RH  068%=      5-min Rain = 0
KCR2 120402Z 00009KT 00/M05 A3059 RMK A01 T00041047  RH  069%=      5-min Rain = 0
KCR2 120403Z 01009KT 00/M04 A3059 RMK A01 T00031044  RH  070%=      5-min Rain = 0
KCR2 120404Z 02008KT 00/M04 A3059 RMK A01 T00031044  RH  071%=      5-min Rain = 0
KCR2 120405Z 01009KT 00/M04 A3059 RMK A01 T00021042  RH  072%=      5-min Rain = 0
KCR2 120406Z 02011KT 00/M05 A3059 RMK A01 T00021045  RH  071%=      5-min Rain = 0
KCR2 120407Z 02012KT 00/M05 A3059 RMK A01 T00021046  RH  070%=      5-min Rain = 0
KCR2 120408Z 02011KT 00/M05 A3059 RMK A01 T00011046  RH  070%=      5-min Rain = 0
KCR2 120409Z 02009KT 00/M04 A3059 RMK A01 T00011044  RH  072%=      5-min Rain = 0
KCR2 120410Z 02009KT 00/04 A3059 RMK A01 T00000-42  RH  073%=      5-min Rain = 0
KCR2 120411Z 03010KT 00/04 A3059 RMK A01 T00-00-41  RH  074%=      5-min Rain = 0
KCR2 120412Z 02009KT M00/M04 A3059 RMK A01 T10011041  RH  074%=      5-min Rain = 0
KCR2 120413Z 02007KT M00/M04 A3059 RMK A01 T10011040  RH  075%=      5-min Rain = 0
KCR2 120414Z 02007KT M00/M04 A306 RMK A01 T10011038  RH  076%=      5-min Rain = 0
KCR2 120415Z 02007KT M00/M04 A3059 RMK A01 T10021036  RH  078%=      5-min Rain = 0
KCR2 120416Z 02006KT M00/M03 A3059 RMK A01 T10021034  RH  079%=      5-min Rain = 0
KCR2 120417Z 03008KT M00/M03 A3059 RMK A01 T10021034  RH  079%=      5-min Rain = 0
KCR2 120418Z 02006KT M00/M04 A3059 RMK A01 T10031036  RH  078%=      5-min Rain = 0
KCR2 120419Z 02007KT M00/M04 A3059 RMK A01 T10031035  RH  079%=      5-min Rain = 0
KCR2 120420Z 03007KT M00/M03 A3059 RMK A01 T10031034  RH  079%=      5-min Rain = 0
KCR2 120421Z 03006KT M00/M03 A3059 RMK A01 T10021033  RH  080%=      5-min Rain = 0
KCR2 120422Z 03007KT M00/M03 A3059 RMK A01 T10031033  RH  080%=      5-min Rain = 0
KCR2 120423Z 03007KT M00/M03 A3059 RMK A01 T10031034  RH  079%=      5-min Rain = 0
KCR2 120424Z 03005KT M00/M03 A3059 RMK A01 T10031034  RH  080%=      5-min Rain = 0
KCR2 120425Z 02006KT M00/M03 A3059 RMK A01 T10031033  RH  080%=      5-min Rain = 0
KCR2 120426Z 02007KT M00/M03 A3059 RMK A01 T10031034  RH  080%=      5-min Rain = 0
KCR2 120427Z 02005KT M00/M03 A3059 RMK A01 T10031034  RH  080%=      5-min Rain = 0
KCR2 120428Z 02007KT M00/M03 A3059 RMK A01 T10021031  RH  081%=      5-min Rain = 0
KCR2 120429Z 02005KT M00/M03 A3059 RMK A01 T10031033  RH  080%=      5-min Rain = 0
KCR2 120430Z 02005KT M00/M03 A3059 RMK A01 T10021031  RH  081%=      5-min Rain = 0
KCR2 120431Z 02005KT M00/M03 A3059 RMK A01 T10031031  RH  081%=      5-min Rain = 0
KCR2 120432Z 02005KT M00/M03 A3059 RMK A01 T10031032  RH  081%=      5-min Rain = 0
KCR2 120433Z 02003KT M00/M03 A3059 RMK A01 T10031031  RH  081%=      5-min Rain = 0
KCR2 120434Z 02004KT M00/M03 A3059 RMK A01 T10021029  RH  082%=      5-min Rain = 0
KCR2 120435Z 02004KT M00/M03 A3059 RMK A01 T10021028  RH  083%=      5-min Rain = 0
KCR2 120436Z 01005KT M00/M03 A3059 RMK A01 T10021028  RH  083%=      5-min Rain = 0
KCR2 120437Z 01004KT M00/M03 A3059 RMK A01 T10021029  RH  082%=      5-min Rain = 0
KCR2 120438Z 01005KT M00/M03 A306 RMK A01 T10021029  RH  082%=      5-min Rain = 0
KCR2 120439Z 01005KT M00/M03 A306 RMK A01 T10021029  RH  082%=      5-min Rain = 0
KCR2 120440Z 01004KT M00/M03 A3059 RMK A01 T10021030  RH  081%=      5-min Rain = 0
KCR2 120441Z 01005KT M00/M03 A3059 RMK A01 T10011030  RH  081%=      5-min Rain = 0
KCR2 120442Z 36004KT M00/M03 A3059 RMK A01 T10011029  RH  082%=      5-min Rain = 0
KCR2 120443Z 00006KT M00/M03 A3059 RMK A01 T10011029  RH  082%=      5-min Rain = 0
KCR2 120444Z 00005KT M00/M03 A3059 RMK A01 T10011030  RH  081%=      5-min Rain = 0
KCR2 120445Z 00006KT 00/03 A3059 RMK A01 T00-00-30  RH  081%=      5-min Rain = 0
KCR2 120446Z 00006KT 00/03 A3059 RMK A01 T00-00-29  RH  081%=      5-min Rain = 0
KCR2 120447Z 01007KT 00/03 A3059 RMK A01 T00000-31  RH  080%=      5-min Rain = 0
KCR2 120448Z 01007KT 00/03 A306 RMK A01 T00000-31  RH  079%=      5-min Rain = 0
KCR2 120449Z 01006KT 00/M03 A306 RMK A01 T00011032  RH  079%=      5-min Rain = 0
KCR2 120450Z 01007KT 00/M03 A306 RMK A01 T00011033  RH  078%=      5-min Rain = 0
KCR2 120451Z 01008KT 00/M04 A306 RMK A01 T00021036  RH  076%=      5-min Rain = 0
KCR2 120452Z 01008KT 00/M04 A306 RMK A01 T00021039  RH  074%=      5-min Rain = 0
KCR2 120453Z 01008KT 00/M04 A306 RMK A01 T00031039  RH  073%=      5-min Rain = 0
KCR2 120454Z 01008KT 00/M04 A306 RMK A01 T00041040  RH  073%=      5-min Rain = 0
KCR2 120455Z 01007KT 00/M04 A306 RMK A01 T00041040  RH  072%=      5-min Rain = 0
KCR2 120456Z 01009KT 00/M04 A306 RMK A01 T00041043  RH  071%=      5-min Rain = 0
KCR2 120457Z 02009KT 00/M05 A306 RMK A01 T00041045  RH  069%=      5-min Rain = 0
KCR2 120458Z 01007KT 01/M05 A306 RMK A01 T00051046  RH  069%=      5-min Rain = 0
KCR2 120459Z 02006KT 01/M05 A306 RMK A01 T00051045  RH  069%=      5-min Rain = 0
KCR2 120500Z 02006KT 01/M04 A306 RMK A01 T00051043  RH  071%=      5-min Rain = 0
KCR2 120501Z 02007KT 00/M04 A306 RMK A01 T00041042  RH  071%=      5-min Rain = 0
KCR2 120502Z 01006KT 00/M04 A306 RMK A01 T00041041  RH  071%=      5-min Rain = 0
KCR2 120503Z 02005KT 00/M04 A306 RMK A01 T00041040  RH  072%=      5-min Rain = 0
KCR2 120504Z 02006KT 00/M04 A306 RMK A01 T00041039  RH  073%=      5-min Rain = 0
KCR2 120505Z 02008KT 00/M04 A306 RMK A01 T00041042  RH  071%=      5-min Rain = 0
KCR2 120506Z 02008KT 00/M04 A306 RMK A01 T00041043  RH  071%=      5-min Rain = 0
KCR2 120507Z 02008KT 00/M05 A306 RMK A01 T00041047  RH  069%=      5-min Rain = 0
KCR2 120508Z 02010KT 00/M05 A306 RMK A01 T00041047  RH  069%=      5-min Rain = 0
KCR2 120509Z 03011KT 00/M05 A306 RMK A01 T00041049  RH  068%=      5-min Rain = 0
KCR2 120510Z 02013KT 01/M05 A306 RMK A01 T00051054  RH  065%=      5-min Rain = 0
KCR2 120511Z 03010KT 01/M06 A306 RMK A01 T00051055  RH  064%=      5-min Rain = 0
KCR2 120512Z 03008KT 01/M06 A306 RMK A01 T00061055  RH  064%=      5-min Rain = 0
KCR2 120513Z 03008G15KT 01/M05 A306 RMK A01 T00061052  RH  066%=      5-min Rain = 0
KCR2 120514Z 03011KT 01/M05 A306 RMK A01 T00061054  RH  064%=      5-min Rain = 0
KCR2 120515Z 02012KT 01/M06 A306 RMK A01 T00061055  RH  064%=      5-min Rain = 0
KCR2 120516Z 03012KT 01/M06 A306 RMK A01 T00061057  RH  063%=      5-min Rain = 0
KCR2 120517Z 02011KT 01/M06 A306 RMK A01 T00061061  RH  061%=      5-min Rain = 0
KCR2 120518Z 02011KT 01/M06 A306 RMK A01 T00061060  RH  061%=      5-min Rain = 0
KCR2 120519Z 03010KT 01/M06 A306 RMK A01 T00061060  RH  061%=      5-min Rain = 0
KCR2 120520Z 02009KT 01/M06 A306 RMK A01 T00061058  RH  062%=      5-min Rain = 0
KCR2 120521Z 02010KT 01/M06 A306 RMK A01 T00061056  RH  063%=      5-min Rain = 0
KCR2 120522Z 02011KT 01/M06 A306 RMK A01 T00061057  RH  062%=      5-min Rain = 0
KCR2 120523Z 03011KT 01/M06 A306 RMK A01 T00061059  RH  062%=      5-min Rain = 0
KCR2 120524Z 02011KT 01/M06 A306 RMK A01 T00061061  RH  061%=      5-min Rain = 0
KCR2 120525Z 03011KT 01/M06 A306 RMK A01 T00061064  RH  060%=      5-min Rain = 0
KCR2 120526Z 03010KT 01/M06 A306 RMK A01 T00061063  RH  060%=      5-min Rain = 0
KCR2 120527Z 03010KT 01/M06 A306 RMK A01 T00061061  RH  061%=      5-min Rain = 0
KCR2 120528Z 02008KT 01/M06 A306 RMK A01 T00071060  RH  061%=      5-min Rain = 0
KCR2 120529Z 03008KT 01/M06 A306 RMK A01 T00071058  RH  062%=      5-min Rain = 0
KCR2 120530Z 03008KT 01/M06 A306 RMK A01 T00071057  RH  062%=      5-min Rain = 0
KCR2 120531Z 03011KT 01/M06 A306 RMK A01 T00071060  RH  061%=      5-min Rain = 0
KCR2 120532Z 03011KT 01/M06 A306 RMK A01 T00061061  RH  061%=      5-min Rain = 0
KCR2 120533Z 02009KT 01/M06 A306 RMK A01 T00061062  RH  060%=      5-min Rain = 0
KCR2 120534Z 02010KT 01/M06 A306 RMK A01 T00071060  RH  061%=      5-min Rain = 0
KCR2 120535Z 02012KT 01/M06 A306 RMK A01 T00071062  RH  060%=      5-min Rain = 0
KCR2 120536Z 01012KT 01/M06 A306 RMK A01 T00071063  RH  060%=      5-min Rain = 0
KCR2 120537Z 02010KT 01/M06 A306 RMK A01 T00061064  RH  059%=      5-min Rain = 0
KCR2 120538Z 03010KT 01/M06 A306 RMK A01 T00061063  RH  060%=      5-min Rain = 0
KCR2 120539Z 03011KT 01/M06 A306 RMK A01 T00061063  RH  060%=      5-min Rain = 0
KCR2 120540Z 02011KT 01/M06 A306 RMK A01 T00061062  RH  060%=      5-min Rain = 0
KCR2 120541Z 02011KT 01/M06 A306 RMK A01 T00061064  RH  059%=      5-min Rain = 0
KCR2 120542Z 02011KT 01/M06 A306 RMK A01 T00061064  RH  059%=      5-min Rain = 0
KCR2 120543Z 02012KT 01/M06 A306 RMK A01 T00061063  RH  060%=      5-min Rain = 0
KCR2 120544Z 03011KT 01/M06 A306 RMK A01 T00061062  RH  060%=      5-min Rain = 0
KCR2 120545Z 02011KT 01/M06 A306 RMK A01 T00061063  RH  060%=      5-min Rain = 0
KCR2 120546Z 03013KT 01/M06 A306 RMK A01 T00061064  RH  059%=      5-min Rain = 0
KCR2 120547Z 02012KT 01/M07 A306 RMK A01 T00061066  RH  059%=      5-min Rain = 0
KCR2 120548Z 02011KT 01/M07 A306 RMK A01 T00061065  RH  059%=      5-min Rain = 0
KCR2 120549Z 03011KT 01/M07 A306 RMK A01 T00061065  RH  059%=      5-min Rain = 0
KCR2 120550Z 03011KT 01/M07 A306 RMK A01 T00061065  RH  059%=      5-min Rain = 0
KCR2 120551Z 03012KT 01/M07 A306 RMK A01 T00061067  RH  058%=      5-min Rain = 0
KCR2 120552Z 02012KT 01/M07 A306 RMK A01 T00071066  RH  058%=      5-min Rain = 0
KCR2 120553Z 01011KT 01/M07 A306 RMK A01 T00071066  RH  058%=      5-min Rain = 0
KCR2 120554Z 02010KT 01/M07 A306 RMK A01 T00071065  RH  059%=      5-min Rain = 0
KCR2 120555Z 01009KT 01/M06 A306 RMK A01 T00071063  RH  060%=      5-min Rain = 0
KCR2 120556Z 01011KT 01/M06 A3061 RMK A01 T00071064  RH  059%=      5-min Rain = 0
KCR2 120557Z 01010KT 01/M06 A3061 RMK A01 T00071063  RH  059%=      5-min Rain = 0
KCR2 120558Z 01011KT 01/M06 A3061 RMK A01 T00071063  RH  059%=      5-min Rain = 0
KCR2 120559Z 01009KT 01/M06 A3061 RMK A01 T00071063  RH  060%=      5-min Rain = 0

Page generated in 0.075 seconds.